﻿<?xml version="1.0" encoding="UTF-8" standalone="no" ?>
<gpx xmlns="http://www.topografix.com/GPX/1/1" creator="CompeGPS" version="1.1" xmlns:xsi="http://www.w3.org/2001/XMLSchema-instance" xsi:schemaLocation="http://www.topografix.com/GPX/1/1 http://www.topografix.com/GPX/1/1/gpx.xsd http://www.garmin.com/xmlschemas/GpxExtensions/v3 http://www.garmin.com/xmlschemas/GpxExtensionsv3.xsd http://www.garmin.com/xmlschemas/TrackPointExtension/v1 http://www.garmin.com/xmlschemas/TrackPointExtensionv1.xsd" xmlns:gpxtpx="http://www.garmin.com/xmlschemas/TrackPointExtension/v1">
  <metadata>
    <link href="http://www.compegps.com">
      <text>CompeGPS TEAM, SL</text>
    </link>
    <time>2012-12-16T13:20:08Z</time>
    <bounds maxlat="42.894439" maxlon="0.905903" minlat="42.867268" minlon="0.859367"/>
  </metadata>
<wpt lat="42.892129" lon="0.886750">
<ele>1020</ele>
<name>Parking</name>
</wpt>
<wpt lat="42.894439" lon="0.889658">
<ele>1130</ele>
<name>Sentier du col de Nede</name>
</wpt>
<wpt lat="42.885317" lon="0.896834">
<ele>1200</ele>
<name>Ruisseau de la Gaudere</name>
</wpt>
<wpt lat="42.877031" lon="0.905622">
<ele>1604</ele>
<name>Col de Quimes</name>
</wpt>
<wpt lat="42.868005" lon="0.885969">
<ele>2082</ele>
<name>Pic de Paumaude</name>
</wpt>
<wpt lat="42.869669" lon="0.859519">
<ele>2210</ele>
<name>Pic de la Calabasse</name>
</wpt>
<wpt lat="42.882239" lon="0.864812">
<ele>1586</ele>
<name>Col Herbe Soulette</name>
</wpt>
<wpt lat="42.882836" lon="0.874603">
<ele>1355</ele>
<name>Cabane Barguerasses</name>
</wpt>
<wpt lat="42.888873" lon="0.880609">
<ele>1100</ele>
<name>Passerelle</name>
</wpt>
  <trk>
    <name>pic de la Calabasse</name>
    <trkseg>
      <trkpt lat="42.892129" lon="0.886750">
        <ele>1034.0</ele>
        <time>2012-12-15T08:29:22Z</time>
        <name>Parking</name>
      </trkpt>
      <trkpt lat="42.892092" lon="0.886893">
        <ele>1034.0</ele>
        <time>2012-12-15T08:29:33Z</time>
      </trkpt>
      <trkpt lat="42.892078" lon="0.887052">
        <ele>1034.0</ele>
        <time>2012-12-15T08:29:44Z</time>
      </trkpt>
      <trkpt lat="42.892062" lon="0.887194">
        <ele>1035.0</ele>
        <time>2012-12-15T08:29:54Z</time>
      </trkpt>
      <trkpt lat="42.892013" lon="0.887316">
        <ele>1036.0</ele>
        <time>2012-12-15T08:30:06Z</time>
      </trkpt>
      <trkpt lat="42.891900" lon="0.887303">
        <ele>1036.9</ele>
        <time>2012-12-15T08:30:19Z</time>
      </trkpt>
      <trkpt lat="42.891839" lon="0.887174">
        <ele>1037.4</ele>
        <time>2012-12-15T08:30:33Z</time>
      </trkpt>
      <trkpt lat="42.891788" lon="0.887023">
        <ele>1038.8</ele>
        <time>2012-12-15T08:30:46Z</time>
      </trkpt>
      <trkpt lat="42.891725" lon="0.886894">
        <ele>1040.8</ele>
        <time>2012-12-15T08:30:59Z</time>
      </trkpt>
      <trkpt lat="42.891691" lon="0.886722">
        <ele>1042.7</ele>
        <time>2012-12-15T08:31:12Z</time>
      </trkpt>
      <trkpt lat="42.891650" lon="0.886569">
        <ele>1043.2</ele>
        <time>2012-12-15T08:31:23Z</time>
      </trkpt>
      <trkpt lat="42.891634" lon="0.886434">
        <ele>1045.1</ele>
        <time>2012-12-15T08:31:33Z</time>
      </trkpt>
      <trkpt lat="42.891624" lon="0.886292">
        <ele>1045.6</ele>
        <time>2012-12-15T08:31:44Z</time>
      </trkpt>
      <trkpt lat="42.891561" lon="0.886220">
        <ele>1047.0</ele>
        <time>2012-12-15T08:31:57Z</time>
      </trkpt>
      <trkpt lat="42.891576" lon="0.886370">
        <ele>1048.0</ele>
        <time>2012-12-15T08:32:20Z</time>
      </trkpt>
      <trkpt lat="42.891573" lon="0.886505">
        <ele>1048.4</ele>
        <time>2012-12-15T08:32:34Z</time>
      </trkpt>
      <trkpt lat="42.891583" lon="0.886651">
        <ele>1049.9</ele>
        <time>2012-12-15T08:32:45Z</time>
      </trkpt>
      <trkpt lat="42.891613" lon="0.886806">
        <ele>1050.9</ele>
        <time>2012-12-15T08:32:56Z</time>
      </trkpt>
      <trkpt lat="42.891602" lon="0.886941">
        <ele>1051.8</ele>
        <time>2012-12-15T08:33:07Z</time>
      </trkpt>
      <trkpt lat="42.891633" lon="0.887071">
        <ele>1052.8</ele>
        <time>2012-12-15T08:33:18Z</time>
      </trkpt>
      <trkpt lat="42.891653" lon="0.887215">
        <ele>1054.2</ele>
        <time>2012-12-15T08:33:30Z</time>
      </trkpt>
      <trkpt lat="42.891681" lon="0.887374">
        <ele>1055.7</ele>
        <time>2012-12-15T08:33:42Z</time>
      </trkpt>
      <trkpt lat="42.891709" lon="0.887548">
        <ele>1056.6</ele>
        <time>2012-12-15T08:33:53Z</time>
      </trkpt>
      <trkpt lat="42.891756" lon="0.887737">
        <ele>1058.1</ele>
        <time>2012-12-15T08:34:05Z</time>
      </trkpt>
      <trkpt lat="42.891754" lon="0.887911">
        <ele>1059.0</ele>
        <time>2012-12-15T08:34:19Z</time>
      </trkpt>
      <trkpt lat="42.891750" lon="0.888044">
        <ele>1060.0</ele>
        <time>2012-12-15T08:34:31Z</time>
      </trkpt>
      <trkpt lat="42.891771" lon="0.888200">
        <ele>1061.4</ele>
        <time>2012-12-15T08:34:45Z</time>
      </trkpt>
      <trkpt lat="42.891814" lon="0.888390">
        <ele>1062.4</ele>
        <time>2012-12-15T08:34:59Z</time>
      </trkpt>
      <trkpt lat="42.891820" lon="0.888554">
        <ele>1063.8</ele>
        <time>2012-12-15T08:35:12Z</time>
      </trkpt>
      <trkpt lat="42.891850" lon="0.888698">
        <ele>1064.8</ele>
        <time>2012-12-15T08:35:28Z</time>
      </trkpt>
      <trkpt lat="42.891855" lon="0.888860">
        <ele>1066.2</ele>
        <time>2012-12-15T08:35:43Z</time>
      </trkpt>
      <trkpt lat="42.891853" lon="0.889009">
        <ele>1066.7</ele>
        <time>2012-12-15T08:35:55Z</time>
      </trkpt>
      <trkpt lat="42.891788" lon="0.889180">
        <ele>1068.6</ele>
        <time>2012-12-15T08:36:09Z</time>
      </trkpt>
      <trkpt lat="42.891714" lon="0.889328">
        <ele>1069.6</ele>
        <time>2012-12-15T08:36:22Z</time>
      </trkpt>
      <trkpt lat="42.891653" lon="0.889434">
        <ele>1070.6</ele>
        <time>2012-12-15T08:36:35Z</time>
      </trkpt>
      <trkpt lat="42.891576" lon="0.889529">
        <ele>1071.5</ele>
        <time>2012-12-15T08:36:47Z</time>
      </trkpt>
      <trkpt lat="42.891498" lon="0.889608">
        <ele>1072.5</ele>
        <time>2012-12-15T08:36:58Z</time>
      </trkpt>
      <trkpt lat="42.891423" lon="0.889707">
        <ele>1073.4</ele>
        <time>2012-12-15T08:37:11Z</time>
      </trkpt>
      <trkpt lat="42.891360" lon="0.889827">
        <ele>1074.9</ele>
        <time>2012-12-15T08:37:24Z</time>
      </trkpt>
      <trkpt lat="42.891270" lon="0.889927">
        <ele>1075.4</ele>
        <time>2012-12-15T08:37:37Z</time>
      </trkpt>
      <trkpt lat="42.891177" lon="0.890017">
        <ele>1077.3</ele>
        <time>2012-12-15T08:37:50Z</time>
      </trkpt>
      <trkpt lat="42.891081" lon="0.890115">
        <ele>1078.3</ele>
        <time>2012-12-15T08:38:03Z</time>
      </trkpt>
      <trkpt lat="42.890989" lon="0.890209">
        <ele>1078.7</ele>
        <time>2012-12-15T08:38:17Z</time>
      </trkpt>
      <trkpt lat="42.890927" lon="0.890337">
        <ele>1080.2</ele>
        <time>2012-12-15T08:38:30Z</time>
      </trkpt>
      <trkpt lat="42.890859" lon="0.890476">
        <ele>1081.1</ele>
        <time>2012-12-15T08:38:43Z</time>
      </trkpt>
      <trkpt lat="42.890781" lon="0.890590">
        <ele>1082.1</ele>
        <time>2012-12-15T08:38:55Z</time>
      </trkpt>
      <trkpt lat="42.890684" lon="0.890690">
        <ele>1082.6</ele>
        <time>2012-12-15T08:39:08Z</time>
      </trkpt>
      <trkpt lat="42.890610" lon="0.890790">
        <ele>1083.1</ele>
        <time>2012-12-15T08:39:20Z</time>
      </trkpt>
      <trkpt lat="42.890535" lon="0.890895">
        <ele>1084.5</ele>
        <time>2012-12-15T08:39:33Z</time>
      </trkpt>
      <trkpt lat="42.890482" lon="0.891012">
        <ele>1085.0</ele>
        <time>2012-12-15T08:39:46Z</time>
      </trkpt>
      <trkpt lat="42.890537" lon="0.891122">
        <ele>1085.9</ele>
        <time>2012-12-15T08:40:00Z</time>
      </trkpt>
      <trkpt lat="42.890644" lon="0.891179">
        <ele>1086.9</ele>
        <time>2012-12-15T08:40:13Z</time>
      </trkpt>
      <trkpt lat="42.890749" lon="0.891187">
        <ele>1088.8</ele>
        <time>2012-12-15T08:40:27Z</time>
      </trkpt>
      <trkpt lat="42.890841" lon="0.891142">
        <ele>1089.8</ele>
        <time>2012-12-15T08:40:40Z</time>
      </trkpt>
      <trkpt lat="42.890945" lon="0.891088">
        <ele>1091.2</ele>
        <time>2012-12-15T08:40:51Z</time>
      </trkpt>
      <trkpt lat="42.891046" lon="0.891055">
        <ele>1092.2</ele>
        <time>2012-12-15T08:41:02Z</time>
      </trkpt>
      <trkpt lat="42.891141" lon="0.890979">
        <ele>1093.2</ele>
        <time>2012-12-15T08:41:14Z</time>
      </trkpt>
      <trkpt lat="42.891219" lon="0.890887">
        <ele>1094.1</ele>
        <time>2012-12-15T08:41:26Z</time>
      </trkpt>
      <trkpt lat="42.891319" lon="0.890841">
        <ele>1095.1</ele>
        <time>2012-12-15T08:41:36Z</time>
      </trkpt>
      <trkpt lat="42.891419" lon="0.890794">
        <ele>1097.0</ele>
        <time>2012-12-15T08:41:47Z</time>
      </trkpt>
      <trkpt lat="42.891518" lon="0.890670">
        <ele>1097.5</ele>
        <time>2012-12-15T08:41:59Z</time>
      </trkpt>
      <trkpt lat="42.891626" lon="0.890583">
        <ele>1098.4</ele>
        <time>2012-12-15T08:42:11Z</time>
      </trkpt>
      <trkpt lat="42.891733" lon="0.890500">
        <ele>1099.4</ele>
        <time>2012-12-15T08:42:23Z</time>
      </trkpt>
      <trkpt lat="42.891843" lon="0.890464">
        <ele>1100.8</ele>
        <time>2012-12-15T08:42:34Z</time>
      </trkpt>
      <trkpt lat="42.891971" lon="0.890419">
        <ele>1101.8</ele>
        <time>2012-12-15T08:42:45Z</time>
      </trkpt>
      <trkpt lat="42.892091" lon="0.890398">
        <ele>1102.8</ele>
        <time>2012-12-15T08:42:56Z</time>
      </trkpt>
      <trkpt lat="42.892216" lon="0.890411">
        <ele>1103.2</ele>
        <time>2012-12-15T08:43:07Z</time>
      </trkpt>
      <trkpt lat="42.892300" lon="0.890334">
        <ele>1104.7</ele>
        <time>2012-12-15T08:43:19Z</time>
      </trkpt>
      <trkpt lat="42.892337" lon="0.890246">
        <ele>1105.7</ele>
        <time>2012-12-15T08:43:31Z</time>
      </trkpt>
      <trkpt lat="42.892412" lon="0.890143">
        <ele>1107.1</ele>
        <time>2012-12-15T08:43:43Z</time>
      </trkpt>
      <trkpt lat="42.892527" lon="0.890078">
        <ele>1108.5</ele>
        <time>2012-12-15T08:43:55Z</time>
      </trkpt>
      <trkpt lat="42.892632" lon="0.889981">
        <ele>1109.0</ele>
        <time>2012-12-15T08:44:08Z</time>
      </trkpt>
      <trkpt lat="42.892695" lon="0.889876">
        <ele>1110.9</ele>
        <time>2012-12-15T08:44:21Z</time>
      </trkpt>
      <trkpt lat="42.892735" lon="0.889819">
        <ele>1110.9</ele>
        <time>2012-12-15T08:44:58Z</time>
      </trkpt>
      <trkpt lat="42.892793" lon="0.889713">
        <ele>1111.9</ele>
        <time>2012-12-15T08:45:10Z</time>
      </trkpt>
      <trkpt lat="42.892891" lon="0.889690">
        <ele>1113.3</ele>
        <time>2012-12-15T08:45:20Z</time>
      </trkpt>
      <trkpt lat="42.893016" lon="0.889645">
        <ele>1114.3</ele>
        <time>2012-12-15T08:45:32Z</time>
      </trkpt>
      <trkpt lat="42.893111" lon="0.889518">
        <ele>1115.8</ele>
        <time>2012-12-15T08:45:44Z</time>
      </trkpt>
      <trkpt lat="42.893237" lon="0.889491">
        <ele>1116.7</ele>
        <time>2012-12-15T08:45:53Z</time>
      </trkpt>
      <trkpt lat="42.893362" lon="0.889505">
        <ele>1118.2</ele>
        <time>2012-12-15T08:46:03Z</time>
      </trkpt>
      <trkpt lat="42.893488" lon="0.889555">
        <ele>1119.1</ele>
        <time>2012-12-15T08:46:15Z</time>
      </trkpt>
      <trkpt lat="42.893595" lon="0.889582">
        <ele>1121.0</ele>
        <time>2012-12-15T08:46:26Z</time>
      </trkpt>
      <trkpt lat="42.893724" lon="0.889573">
        <ele>1122.0</ele>
        <time>2012-12-15T08:46:39Z</time>
      </trkpt>
      <trkpt lat="42.893854" lon="0.889593">
        <ele>1123.4</ele>
        <time>2012-12-15T08:46:52Z</time>
      </trkpt>
      <trkpt lat="42.893973" lon="0.889602">
        <ele>1125.4</ele>
        <time>2012-12-15T08:47:06Z</time>
      </trkpt>
      <trkpt lat="42.894104" lon="0.889650">
        <ele>1126.8</ele>
        <time>2012-12-15T08:47:20Z</time>
      </trkpt>
      <trkpt lat="42.894204" lon="0.889641">
        <ele>1127.8</ele>
        <time>2012-12-15T08:47:32Z</time>
      </trkpt>
      <trkpt lat="42.894329" lon="0.889633">
        <ele>1129.2</ele>
        <time>2012-12-15T08:47:46Z</time>
      </trkpt>
      <trkpt lat="42.894439" lon="0.889658">
        <ele>1130.2</ele>
        <time>2012-12-15T08:47:59Z</time>
        <name>Sentier du col de Nede</name>
      </trkpt>
      <trkpt lat="42.894415" lon="0.889794">
        <ele>1132.1</ele>
        <time>2012-12-15T08:48:17Z</time>
      </trkpt>
      <trkpt lat="42.894293" lon="0.889821">
        <ele>1133.1</ele>
        <time>2012-12-15T08:48:31Z</time>
      </trkpt>
      <trkpt lat="42.894169" lon="0.889835">
        <ele>1134.5</ele>
        <time>2012-12-15T08:48:44Z</time>
      </trkpt>
      <trkpt lat="42.894039" lon="0.889884">
        <ele>1135.4</ele>
        <time>2012-12-15T08:49:00Z</time>
      </trkpt>
      <trkpt lat="42.893920" lon="0.889948">
        <ele>1135.9</ele>
        <time>2012-12-15T08:49:14Z</time>
      </trkpt>
      <trkpt lat="42.893807" lon="0.890048">
        <ele>1136.4</ele>
        <time>2012-12-15T08:49:28Z</time>
      </trkpt>
      <trkpt lat="42.893657" lon="0.890153">
        <ele>1137.9</ele>
        <time>2012-12-15T08:49:44Z</time>
      </trkpt>
      <trkpt lat="42.893536" lon="0.890252">
        <ele>1139.3</ele>
        <time>2012-12-15T08:49:59Z</time>
      </trkpt>
      <trkpt lat="42.893413" lon="0.890325">
        <ele>1140.7</ele>
        <time>2012-12-15T08:50:13Z</time>
      </trkpt>
      <trkpt lat="42.893310" lon="0.890427">
        <ele>1142.2</ele>
        <time>2012-12-15T08:50:31Z</time>
      </trkpt>
      <trkpt lat="42.893194" lon="0.890512">
        <ele>1143.6</ele>
        <time>2012-12-15T08:50:48Z</time>
      </trkpt>
      <trkpt lat="42.893075" lon="0.890633">
        <ele>1146.0</ele>
        <time>2012-12-15T08:51:04Z</time>
      </trkpt>
      <trkpt lat="42.892969" lon="0.890731">
        <ele>1147.0</ele>
        <time>2012-12-15T08:51:17Z</time>
      </trkpt>
      <trkpt lat="42.892885" lon="0.890811">
        <ele>1148.9</ele>
        <time>2012-12-15T08:51:29Z</time>
      </trkpt>
      <trkpt lat="42.892806" lon="0.890916">
        <ele>1150.3</ele>
        <time>2012-12-15T08:51:42Z</time>
      </trkpt>
      <trkpt lat="42.892749" lon="0.891054">
        <ele>1153.2</ele>
        <time>2012-12-15T08:51:54Z</time>
      </trkpt>
      <trkpt lat="42.892685" lon="0.891180">
        <ele>1154.7</ele>
        <time>2012-12-15T08:52:05Z</time>
      </trkpt>
      <trkpt lat="42.892616" lon="0.891306">
        <ele>1156.6</ele>
        <time>2012-12-15T08:52:18Z</time>
      </trkpt>
      <trkpt lat="42.892528" lon="0.891429">
        <ele>1158.1</ele>
        <time>2012-12-15T08:52:31Z</time>
      </trkpt>
      <trkpt lat="42.892408" lon="0.891561">
        <ele>1158.5</ele>
        <time>2012-12-15T08:52:46Z</time>
      </trkpt>
      <trkpt lat="42.892300" lon="0.891704">
        <ele>1159.5</ele>
        <time>2012-12-15T08:52:59Z</time>
      </trkpt>
      <trkpt lat="42.892190" lon="0.891814">
        <ele>1160.4</ele>
        <time>2012-12-15T08:53:11Z</time>
      </trkpt>
      <trkpt lat="42.892066" lon="0.891897">
        <ele>1160.4</ele>
        <time>2012-12-15T08:53:24Z</time>
      </trkpt>
      <trkpt lat="42.892049" lon="0.891907">
        <ele>1159.5</ele>
        <time>2012-12-15T08:53:46Z</time>
      </trkpt>
      <trkpt lat="42.892108" lon="0.891790">
        <ele>1160.4</ele>
        <time>2012-12-15T08:55:51Z</time>
      </trkpt>
      <trkpt lat="42.892052" lon="0.891802">
        <ele>1160.9</ele>
        <time>2012-12-15T08:58:08Z</time>
      </trkpt>
      <trkpt lat="42.891891" lon="0.891889">
        <ele>1160.4</ele>
        <time>2012-12-15T08:58:20Z</time>
      </trkpt>
      <trkpt lat="42.891807" lon="0.892012">
        <ele>1160.4</ele>
        <time>2012-12-15T08:58:32Z</time>
      </trkpt>
      <trkpt lat="42.891699" lon="0.892105">
        <ele>1160.0</ele>
        <time>2012-12-15T08:58:44Z</time>
      </trkpt>
      <trkpt lat="42.891599" lon="0.892212">
        <ele>1160.9</ele>
        <time>2012-12-15T08:58:54Z</time>
      </trkpt>
      <trkpt lat="42.891488" lon="0.892316">
        <ele>1161.4</ele>
        <time>2012-12-15T08:59:05Z</time>
      </trkpt>
      <trkpt lat="42.891398" lon="0.892395">
        <ele>1162.4</ele>
        <time>2012-12-15T08:59:17Z</time>
      </trkpt>
      <trkpt lat="42.891283" lon="0.892457">
        <ele>1162.4</ele>
        <time>2012-12-15T08:59:28Z</time>
      </trkpt>
      <trkpt lat="42.891164" lon="0.892544">
        <ele>1162.4</ele>
        <time>2012-12-15T08:59:40Z</time>
      </trkpt>
      <trkpt lat="42.891052" lon="0.892671">
        <ele>1162.4</ele>
        <time>2012-12-15T08:59:51Z</time>
      </trkpt>
      <trkpt lat="42.890933" lon="0.892745">
        <ele>1162.4</ele>
        <time>2012-12-15T09:00:04Z</time>
      </trkpt>
      <trkpt lat="42.890792" lon="0.892820">
        <ele>1162.4</ele>
        <time>2012-12-15T09:00:15Z</time>
      </trkpt>
      <trkpt lat="42.890651" lon="0.892920">
        <ele>1161.9</ele>
        <time>2012-12-15T09:00:25Z</time>
      </trkpt>
      <trkpt lat="42.890441" lon="0.892989">
        <ele>1161.9</ele>
        <time>2012-12-15T09:02:11Z</time>
      </trkpt>
      <trkpt lat="42.890349" lon="0.893038">
        <ele>1162.8</ele>
        <time>2012-12-15T09:02:24Z</time>
      </trkpt>
      <trkpt lat="42.890228" lon="0.893132">
        <ele>1162.4</ele>
        <time>2012-12-15T09:02:38Z</time>
      </trkpt>
      <trkpt lat="42.890121" lon="0.893238">
        <ele>1162.8</ele>
        <time>2012-12-15T09:02:52Z</time>
      </trkpt>
      <trkpt lat="42.889989" lon="0.893277">
        <ele>1163.3</ele>
        <time>2012-12-15T09:03:04Z</time>
      </trkpt>
      <trkpt lat="42.889898" lon="0.893366">
        <ele>1163.3</ele>
        <time>2012-12-15T09:03:15Z</time>
      </trkpt>
      <trkpt lat="42.889829" lon="0.893520">
        <ele>1164.3</ele>
        <time>2012-12-15T09:03:26Z</time>
      </trkpt>
      <trkpt lat="42.889814" lon="0.893651">
        <ele>1164.8</ele>
        <time>2012-12-15T09:03:36Z</time>
      </trkpt>
      <trkpt lat="42.889720" lon="0.893761">
        <ele>1164.8</ele>
        <time>2012-12-15T09:03:51Z</time>
      </trkpt>
      <trkpt lat="42.889580" lon="0.893761">
        <ele>1165.3</ele>
        <time>2012-12-15T09:04:02Z</time>
      </trkpt>
      <trkpt lat="42.889441" lon="0.893700">
        <ele>1166.2</ele>
        <time>2012-12-15T09:04:15Z</time>
      </trkpt>
      <trkpt lat="42.889341" lon="0.893763">
        <ele>1165.3</ele>
        <time>2012-12-15T09:04:27Z</time>
      </trkpt>
      <trkpt lat="42.889195" lon="0.893817">
        <ele>1165.7</ele>
        <time>2012-12-15T09:04:39Z</time>
      </trkpt>
      <trkpt lat="42.889073" lon="0.893880">
        <ele>1165.3</ele>
        <time>2012-12-15T09:04:50Z</time>
      </trkpt>
      <trkpt lat="42.888960" lon="0.893941">
        <ele>1165.7</ele>
        <time>2012-12-15T09:05:06Z</time>
      </trkpt>
      <trkpt lat="42.888854" lon="0.894045">
        <ele>1166.2</ele>
        <time>2012-12-15T09:05:22Z</time>
      </trkpt>
      <trkpt lat="42.888827" lon="0.894174">
        <ele>1166.7</ele>
        <time>2012-12-15T09:06:34Z</time>
      </trkpt>
      <trkpt lat="42.888639" lon="0.894289">
        <ele>1166.2</ele>
        <time>2012-12-15T09:07:08Z</time>
      </trkpt>
      <trkpt lat="42.888522" lon="0.894196">
        <ele>1164.8</ele>
        <time>2012-12-15T09:07:20Z</time>
      </trkpt>
      <trkpt lat="42.888392" lon="0.894213">
        <ele>1164.8</ele>
        <time>2012-12-15T09:07:33Z</time>
      </trkpt>
      <trkpt lat="42.888244" lon="0.894294">
        <ele>1162.8</ele>
        <time>2012-12-15T09:07:49Z</time>
      </trkpt>
      <trkpt lat="42.888099" lon="0.894353">
        <ele>1163.8</ele>
        <time>2012-12-15T09:08:07Z</time>
      </trkpt>
      <trkpt lat="42.887951" lon="0.894430">
        <ele>1166.7</ele>
        <time>2012-12-15T09:08:23Z</time>
      </trkpt>
      <trkpt lat="42.887799" lon="0.894502">
        <ele>1166.7</ele>
        <time>2012-12-15T09:08:37Z</time>
      </trkpt>
      <trkpt lat="42.887691" lon="0.894658">
        <ele>1167.2</ele>
        <time>2012-12-15T09:08:51Z</time>
      </trkpt>
      <trkpt lat="42.887601" lon="0.894794">
        <ele>1167.2</ele>
        <time>2012-12-15T09:09:04Z</time>
      </trkpt>
      <trkpt lat="42.887476" lon="0.894873">
        <ele>1166.7</ele>
        <time>2012-12-15T09:09:17Z</time>
      </trkpt>
      <trkpt lat="42.887345" lon="0.894835">
        <ele>1167.7</ele>
        <time>2012-12-15T09:09:29Z</time>
      </trkpt>
      <trkpt lat="42.887238" lon="0.894790">
        <ele>1167.7</ele>
        <time>2012-12-15T09:09:40Z</time>
      </trkpt>
      <trkpt lat="42.887124" lon="0.894813">
        <ele>1168.1</ele>
        <time>2012-12-15T09:09:54Z</time>
      </trkpt>
      <trkpt lat="42.887060" lon="0.894934">
        <ele>1167.2</ele>
        <time>2012-12-15T09:10:08Z</time>
      </trkpt>
      <trkpt lat="42.887029" lon="0.895062">
        <ele>1167.2</ele>
        <time>2012-12-15T09:10:19Z</time>
      </trkpt>
      <trkpt lat="42.886985" lon="0.895197">
        <ele>1168.1</ele>
        <time>2012-12-15T09:10:29Z</time>
      </trkpt>
      <trkpt lat="42.886944" lon="0.895318">
        <ele>1168.1</ele>
        <time>2012-12-15T09:10:39Z</time>
      </trkpt>
      <trkpt lat="42.886899" lon="0.895425">
        <ele>1168.6</ele>
        <time>2012-12-15T09:10:48Z</time>
      </trkpt>
      <trkpt lat="42.886828" lon="0.895572">
        <ele>1169.1</ele>
        <time>2012-12-15T09:10:59Z</time>
      </trkpt>
      <trkpt lat="42.886757" lon="0.895696">
        <ele>1169.6</ele>
        <time>2012-12-15T09:11:12Z</time>
      </trkpt>
      <trkpt lat="42.886701" lon="0.895824">
        <ele>1171.5</ele>
        <time>2012-12-15T09:11:27Z</time>
      </trkpt>
      <trkpt lat="42.886677" lon="0.895972">
        <ele>1172.5</ele>
        <time>2012-12-15T09:11:38Z</time>
      </trkpt>
      <trkpt lat="42.886621" lon="0.896054">
        <ele>1172.5</ele>
        <time>2012-12-15T09:11:55Z</time>
      </trkpt>
      <trkpt lat="42.886537" lon="0.895959">
        <ele>1172.5</ele>
        <time>2012-12-15T09:12:09Z</time>
      </trkpt>
      <trkpt lat="42.886443" lon="0.895971">
        <ele>1174.9</ele>
        <time>2012-12-15T09:12:25Z</time>
      </trkpt>
      <trkpt lat="42.886384" lon="0.896073">
        <ele>1178.7</ele>
        <time>2012-12-15T09:12:57Z</time>
      </trkpt>
      <trkpt lat="42.886270" lon="0.896101">
        <ele>1179.7</ele>
        <time>2012-12-15T09:13:14Z</time>
      </trkpt>
      <trkpt lat="42.886170" lon="0.896127">
        <ele>1181.1</ele>
        <time>2012-12-15T09:13:31Z</time>
      </trkpt>
      <trkpt lat="42.886063" lon="0.896179">
        <ele>1183.5</ele>
        <time>2012-12-15T09:13:47Z</time>
      </trkpt>
      <trkpt lat="42.885961" lon="0.896227">
        <ele>1184.5</ele>
        <time>2012-12-15T09:14:01Z</time>
      </trkpt>
      <trkpt lat="42.885864" lon="0.896255">
        <ele>1185.0</ele>
        <time>2012-12-15T09:14:11Z</time>
      </trkpt>
      <trkpt lat="42.885777" lon="0.896310">
        <ele>1186.4</ele>
        <time>2012-12-15T09:14:24Z</time>
      </trkpt>
      <trkpt lat="42.885710" lon="0.896421">
        <ele>1187.8</ele>
        <time>2012-12-15T09:14:37Z</time>
      </trkpt>
      <trkpt lat="42.885650" lon="0.896541">
        <ele>1188.3</ele>
        <time>2012-12-15T09:14:51Z</time>
      </trkpt>
      <trkpt lat="42.885552" lon="0.896600">
        <ele>1188.3</ele>
        <time>2012-12-15T09:15:04Z</time>
      </trkpt>
      <trkpt lat="42.885458" lon="0.896678">
        <ele>1189.3</ele>
        <time>2012-12-15T09:15:19Z</time>
      </trkpt>
      <trkpt lat="42.885398" lon="0.896753">
        <ele>1190.7</ele>
        <time>2012-12-15T09:15:36Z</time>
      </trkpt>
      <trkpt lat="42.885317" lon="0.896834">
        <ele>1192.2</ele>
        <time>2012-12-15T09:15:52Z</time>
        <name>Ruisseau de la Gaudere</name>
      </trkpt>
      <trkpt lat="42.885260" lon="0.896938">
        <ele>1193.1</ele>
        <time>2012-12-15T09:16:08Z</time>
      </trkpt>
      <trkpt lat="42.885198" lon="0.897031">
        <ele>1194.6</ele>
        <time>2012-12-15T09:16:23Z</time>
      </trkpt>
      <trkpt lat="42.885213" lon="0.897189">
        <ele>1196.5</ele>
        <time>2012-12-15T09:16:43Z</time>
      </trkpt>
      <trkpt lat="42.885182" lon="0.897132">
        <ele>1197.5</ele>
        <time>2012-12-15T09:20:12Z</time>
      </trkpt>
      <trkpt lat="42.885176" lon="0.897131">
        <ele>1198.4</ele>
        <time>2012-12-15T09:23:28Z</time>
      </trkpt>
      <trkpt lat="42.885198" lon="0.897223">
        <ele>1199.4</ele>
        <time>2012-12-15T09:24:03Z</time>
      </trkpt>
      <trkpt lat="42.885252" lon="0.897338">
        <ele>1203.7</ele>
        <time>2012-12-15T09:24:24Z</time>
      </trkpt>
      <trkpt lat="42.885153" lon="0.897442">
        <ele>1206.1</ele>
        <time>2012-12-15T09:24:39Z</time>
      </trkpt>
      <trkpt lat="42.885135" lon="0.897586">
        <ele>1209.5</ele>
        <time>2012-12-15T09:24:55Z</time>
      </trkpt>
      <trkpt lat="42.885062" lon="0.897685">
        <ele>1210.9</ele>
        <time>2012-12-15T09:25:07Z</time>
      </trkpt>
      <trkpt lat="42.884960" lon="0.897758">
        <ele>1212.8</ele>
        <time>2012-12-15T09:25:21Z</time>
      </trkpt>
      <trkpt lat="42.884877" lon="0.897835">
        <ele>1215.2</ele>
        <time>2012-12-15T09:25:35Z</time>
      </trkpt>
      <trkpt lat="42.884788" lon="0.897895">
        <ele>1218.1</ele>
        <time>2012-12-15T09:25:52Z</time>
      </trkpt>
      <trkpt lat="42.884694" lon="0.897937">
        <ele>1220.5</ele>
        <time>2012-12-15T09:26:07Z</time>
      </trkpt>
      <trkpt lat="42.884607" lon="0.897945">
        <ele>1222.4</ele>
        <time>2012-12-15T09:26:44Z</time>
      </trkpt>
      <trkpt lat="42.884624" lon="0.898057">
        <ele>1226.8</ele>
        <time>2012-12-15T09:26:59Z</time>
      </trkpt>
      <trkpt lat="42.884540" lon="0.898043">
        <ele>1228.7</ele>
        <time>2012-12-15T09:27:12Z</time>
      </trkpt>
      <trkpt lat="42.884451" lon="0.898004">
        <ele>1228.7</ele>
        <time>2012-12-15T09:27:30Z</time>
      </trkpt>
      <trkpt lat="42.884368" lon="0.897984">
        <ele>1230.6</ele>
        <time>2012-12-15T09:27:49Z</time>
      </trkpt>
      <trkpt lat="42.884270" lon="0.897975">
        <ele>1231.6</ele>
        <time>2012-12-15T09:28:28Z</time>
      </trkpt>
      <trkpt lat="42.884216" lon="0.898001">
        <ele>1234.5</ele>
        <time>2012-12-15T09:28:43Z</time>
      </trkpt>
      <trkpt lat="42.884266" lon="0.898106">
        <ele>1236.9</ele>
        <time>2012-12-15T09:28:57Z</time>
      </trkpt>
      <trkpt lat="42.884243" lon="0.898199">
        <ele>1240.2</ele>
        <time>2012-12-15T09:29:12Z</time>
      </trkpt>
      <trkpt lat="42.884142" lon="0.898159">
        <ele>1242.2</ele>
        <time>2012-12-15T09:29:27Z</time>
      </trkpt>
      <trkpt lat="42.884041" lon="0.898161">
        <ele>1244.6</ele>
        <time>2012-12-15T09:29:49Z</time>
      </trkpt>
      <trkpt lat="42.883946" lon="0.898096">
        <ele>1246.5</ele>
        <time>2012-12-15T09:30:02Z</time>
      </trkpt>
      <trkpt lat="42.883890" lon="0.898047">
        <ele>1247.9</ele>
        <time>2012-12-15T09:30:14Z</time>
      </trkpt>
      <trkpt lat="42.883797" lon="0.897991">
        <ele>1249.8</ele>
        <time>2012-12-15T09:30:30Z</time>
      </trkpt>
      <trkpt lat="42.883734" lon="0.897918">
        <ele>1251.3</ele>
        <time>2012-12-15T09:30:47Z</time>
      </trkpt>
      <trkpt lat="42.883672" lon="0.897811">
        <ele>1254.2</ele>
        <time>2012-12-15T09:31:03Z</time>
      </trkpt>
      <trkpt lat="42.883603" lon="0.897804">
        <ele>1256.6</ele>
        <time>2012-12-15T09:31:21Z</time>
      </trkpt>
      <trkpt lat="42.883606" lon="0.897812">
        <ele>1258.5</ele>
        <time>2012-12-15T09:31:56Z</time>
      </trkpt>
      <trkpt lat="42.883571" lon="0.897912">
        <ele>1260.4</ele>
        <time>2012-12-15T09:33:26Z</time>
      </trkpt>
      <trkpt lat="42.883627" lon="0.898045">
        <ele>1262.3</ele>
        <time>2012-12-15T09:33:43Z</time>
      </trkpt>
      <trkpt lat="42.883599" lon="0.898177">
        <ele>1265.2</ele>
        <time>2012-12-15T09:33:56Z</time>
      </trkpt>
      <trkpt lat="42.883554" lon="0.898257">
        <ele>1268.6</ele>
        <time>2012-12-15T09:34:12Z</time>
      </trkpt>
      <trkpt lat="42.883454" lon="0.898298">
        <ele>1271.5</ele>
        <time>2012-12-15T09:34:35Z</time>
      </trkpt>
      <trkpt lat="42.883421" lon="0.898415">
        <ele>1274.4</ele>
        <time>2012-12-15T09:34:50Z</time>
      </trkpt>
      <trkpt lat="42.883395" lon="0.898517">
        <ele>1277.2</ele>
        <time>2012-12-15T09:35:07Z</time>
      </trkpt>
      <trkpt lat="42.883370" lon="0.898636">
        <ele>1281.6</ele>
        <time>2012-12-15T09:35:29Z</time>
      </trkpt>
      <trkpt lat="42.883323" lon="0.898733">
        <ele>1284.5</ele>
        <time>2012-12-15T09:35:48Z</time>
      </trkpt>
      <trkpt lat="42.883368" lon="0.898848">
        <ele>1287.8</ele>
        <time>2012-12-15T09:36:05Z</time>
      </trkpt>
      <trkpt lat="42.883293" lon="0.898925">
        <ele>1290.7</ele>
        <time>2012-12-15T09:36:23Z</time>
      </trkpt>
      <trkpt lat="42.883291" lon="0.899006">
        <ele>1294.1</ele>
        <time>2012-12-15T09:36:44Z</time>
      </trkpt>
      <trkpt lat="42.883295" lon="0.899106">
        <ele>1297.9</ele>
        <time>2012-12-15T09:37:06Z</time>
      </trkpt>
      <trkpt lat="42.883213" lon="0.899204">
        <ele>1301.3</ele>
        <time>2012-12-15T09:37:26Z</time>
      </trkpt>
      <trkpt lat="42.883200" lon="0.899302">
        <ele>1305.1</ele>
        <time>2012-12-15T09:37:46Z</time>
      </trkpt>
      <trkpt lat="42.883183" lon="0.899417">
        <ele>1308.5</ele>
        <time>2012-12-15T09:38:19Z</time>
      </trkpt>
      <trkpt lat="42.883122" lon="0.899527">
        <ele>1311.9</ele>
        <time>2012-12-15T09:38:37Z</time>
      </trkpt>
      <trkpt lat="42.883175" lon="0.899620">
        <ele>1315.2</ele>
        <time>2012-12-15T09:38:51Z</time>
      </trkpt>
      <trkpt lat="42.883212" lon="0.899746">
        <ele>1318.1</ele>
        <time>2012-12-15T09:39:04Z</time>
      </trkpt>
      <trkpt lat="42.883104" lon="0.899826">
        <ele>1321.0</ele>
        <time>2012-12-15T09:39:23Z</time>
      </trkpt>
      <trkpt lat="42.883093" lon="0.899930">
        <ele>1324.8</ele>
        <time>2012-12-15T09:39:44Z</time>
      </trkpt>
      <trkpt lat="42.883017" lon="0.900027">
        <ele>1327.7</ele>
        <time>2012-12-15T09:40:01Z</time>
      </trkpt>
      <trkpt lat="42.882931" lon="0.900097">
        <ele>1330.6</ele>
        <time>2012-12-15T09:40:17Z</time>
      </trkpt>
      <trkpt lat="42.882844" lon="0.900179">
        <ele>1334.4</ele>
        <time>2012-12-15T09:40:36Z</time>
      </trkpt>
      <trkpt lat="42.882825" lon="0.900257">
        <ele>1338.3</ele>
        <time>2012-12-15T09:40:57Z</time>
      </trkpt>
      <trkpt lat="42.882879" lon="0.900367">
        <ele>1341.7</ele>
        <time>2012-12-15T09:41:15Z</time>
      </trkpt>
      <trkpt lat="42.882774" lon="0.900453">
        <ele>1344.5</ele>
        <time>2012-12-15T09:41:38Z</time>
      </trkpt>
      <trkpt lat="42.882721" lon="0.900538">
        <ele>1349.8</ele>
        <time>2012-12-15T09:42:06Z</time>
      </trkpt>
      <trkpt lat="42.882772" lon="0.900660">
        <ele>1353.2</ele>
        <time>2012-12-15T09:42:24Z</time>
      </trkpt>
      <trkpt lat="42.882774" lon="0.900766">
        <ele>1355.6</ele>
        <time>2012-12-15T09:42:42Z</time>
      </trkpt>
      <trkpt lat="42.882665" lon="0.900796">
        <ele>1357.5</ele>
        <time>2012-12-15T09:42:57Z</time>
      </trkpt>
      <trkpt lat="42.882692" lon="0.900906">
        <ele>1361.8</ele>
        <time>2012-12-15T09:43:21Z</time>
      </trkpt>
      <trkpt lat="42.882628" lon="0.900986">
        <ele>1365.7</ele>
        <time>2012-12-15T09:43:40Z</time>
      </trkpt>
      <trkpt lat="42.882524" lon="0.901021">
        <ele>1367.6</ele>
        <time>2012-12-15T09:43:58Z</time>
      </trkpt>
      <trkpt lat="42.882507" lon="0.901108">
        <ele>1371.5</ele>
        <time>2012-12-15T09:44:43Z</time>
      </trkpt>
      <trkpt lat="42.882445" lon="0.901228">
        <ele>1375.3</ele>
        <time>2012-12-15T09:46:41Z</time>
      </trkpt>
      <trkpt lat="42.882343" lon="0.901259">
        <ele>1378.7</ele>
        <time>2012-12-15T09:46:56Z</time>
      </trkpt>
      <trkpt lat="42.882359" lon="0.901344">
        <ele>1382.5</ele>
        <time>2012-12-15T09:47:16Z</time>
      </trkpt>
      <trkpt lat="42.882364" lon="0.901456">
        <ele>1387.3</ele>
        <time>2012-12-15T09:47:44Z</time>
      </trkpt>
      <trkpt lat="42.882355" lon="0.901563">
        <ele>1392.1</ele>
        <time>2012-12-15T09:48:11Z</time>
      </trkpt>
      <trkpt lat="42.882278" lon="0.901637">
        <ele>1395.0</ele>
        <time>2012-12-15T09:48:39Z</time>
      </trkpt>
      <trkpt lat="42.882241" lon="0.901722">
        <ele>1400.3</ele>
        <time>2012-12-15T09:49:12Z</time>
      </trkpt>
      <trkpt lat="42.882130" lon="0.901817">
        <ele>1404.6</ele>
        <time>2012-12-15T09:49:42Z</time>
      </trkpt>
      <trkpt lat="42.882109" lon="0.901886">
        <ele>1408.5</ele>
        <time>2012-12-15T09:50:07Z</time>
      </trkpt>
      <trkpt lat="42.882168" lon="0.901989">
        <ele>1412.3</ele>
        <time>2012-12-15T09:50:30Z</time>
      </trkpt>
      <trkpt lat="42.882107" lon="0.902080">
        <ele>1415.7</ele>
        <time>2012-12-15T09:50:54Z</time>
      </trkpt>
      <trkpt lat="42.882117" lon="0.902162">
        <ele>1420.0</ele>
        <time>2012-12-15T09:51:20Z</time>
      </trkpt>
      <trkpt lat="42.882075" lon="0.902269">
        <ele>1423.4</ele>
        <time>2012-12-15T09:51:43Z</time>
      </trkpt>
      <trkpt lat="42.882126" lon="0.902370">
        <ele>1426.2</ele>
        <time>2012-12-15T09:52:03Z</time>
      </trkpt>
      <trkpt lat="42.882069" lon="0.902480">
        <ele>1430.1</ele>
        <time>2012-12-15T09:52:28Z</time>
      </trkpt>
      <trkpt lat="42.882061" lon="0.902530">
        <ele>1433.9</ele>
        <time>2012-12-15T09:52:58Z</time>
      </trkpt>
      <trkpt lat="42.881973" lon="0.902621">
        <ele>1436.3</ele>
        <time>2012-12-15T09:53:18Z</time>
      </trkpt>
      <trkpt lat="42.882009" lon="0.902696">
        <ele>1438.8</ele>
        <time>2012-12-15T09:53:41Z</time>
      </trkpt>
      <trkpt lat="42.882038" lon="0.902787">
        <ele>1442.6</ele>
        <time>2012-12-15T09:54:04Z</time>
      </trkpt>
      <trkpt lat="42.881991" lon="0.902891">
        <ele>1445.5</ele>
        <time>2012-12-15T09:54:25Z</time>
      </trkpt>
      <trkpt lat="42.882066" lon="0.902989">
        <ele>1448.4</ele>
        <time>2012-12-15T09:54:46Z</time>
      </trkpt>
      <trkpt lat="42.881949" lon="0.903038">
        <ele>1451.2</ele>
        <time>2012-12-15T09:55:05Z</time>
      </trkpt>
      <trkpt lat="42.881944" lon="0.903107">
        <ele>1454.6</ele>
        <time>2012-12-15T09:55:23Z</time>
      </trkpt>
      <trkpt lat="42.881948" lon="0.903216">
        <ele>1458.0</ele>
        <time>2012-12-15T09:55:42Z</time>
      </trkpt>
      <trkpt lat="42.881848" lon="0.903289">
        <ele>1461.3</ele>
        <time>2012-12-15T09:56:03Z</time>
      </trkpt>
      <trkpt lat="42.881901" lon="0.903388">
        <ele>1464.7</ele>
        <time>2012-12-15T09:56:21Z</time>
      </trkpt>
      <trkpt lat="42.881867" lon="0.903476">
        <ele>1468.1</ele>
        <time>2012-12-15T09:56:42Z</time>
      </trkpt>
      <trkpt lat="42.881886" lon="0.903554">
        <ele>1470.5</ele>
        <time>2012-12-15T09:56:58Z</time>
      </trkpt>
      <trkpt lat="42.881821" lon="0.903632">
        <ele>1473.4</ele>
        <time>2012-12-15T09:57:20Z</time>
      </trkpt>
      <trkpt lat="42.881791" lon="0.903707">
        <ele>1476.7</ele>
        <time>2012-12-15T09:57:45Z</time>
      </trkpt>
      <trkpt lat="42.881780" lon="0.903830">
        <ele>1482.5</ele>
        <time>2012-12-15T09:58:15Z</time>
      </trkpt>
      <trkpt lat="42.881734" lon="0.903903">
        <ele>1486.3</ele>
        <time>2012-12-15T09:58:40Z</time>
      </trkpt>
      <trkpt lat="42.881760" lon="0.904010">
        <ele>1489.7</ele>
        <time>2012-12-15T09:59:01Z</time>
      </trkpt>
      <trkpt lat="42.881701" lon="0.904078">
        <ele>1493.1</ele>
        <time>2012-12-15T09:59:23Z</time>
      </trkpt>
      <trkpt lat="42.881672" lon="0.904167">
        <ele>1496.4</ele>
        <time>2012-12-15T09:59:46Z</time>
      </trkpt>
      <trkpt lat="42.881711" lon="0.904266">
        <ele>1499.8</ele>
        <time>2012-12-15T10:00:04Z</time>
      </trkpt>
      <trkpt lat="42.881659" lon="0.904328">
        <ele>1502.7</ele>
        <time>2012-12-15T10:00:24Z</time>
      </trkpt>
      <trkpt lat="42.881646" lon="0.904407">
        <ele>1507.5</ele>
        <time>2012-12-15T10:00:50Z</time>
      </trkpt>
      <trkpt lat="42.881638" lon="0.904496">
        <ele>1508.9</ele>
        <time>2012-12-15T10:01:11Z</time>
      </trkpt>
      <trkpt lat="42.881607" lon="0.904585">
        <ele>1512.3</ele>
        <time>2012-12-15T10:01:34Z</time>
      </trkpt>
      <trkpt lat="42.881641" lon="0.904661">
        <ele>1515.2</ele>
        <time>2012-12-15T10:02:00Z</time>
      </trkpt>
      <trkpt lat="42.881592" lon="0.904734">
        <ele>1520.0</ele>
        <time>2012-12-15T10:02:32Z</time>
      </trkpt>
      <trkpt lat="42.881507" lon="0.904800">
        <ele>1524.3</ele>
        <time>2012-12-15T10:02:58Z</time>
      </trkpt>
      <trkpt lat="42.881458" lon="0.904880">
        <ele>1528.2</ele>
        <time>2012-12-15T10:03:18Z</time>
      </trkpt>
      <trkpt lat="42.881402" lon="0.904931">
        <ele>1532.5</ele>
        <time>2012-12-15T10:03:37Z</time>
      </trkpt>
      <trkpt lat="42.881304" lon="0.905025">
        <ele>1537.3</ele>
        <time>2012-12-15T10:04:10Z</time>
      </trkpt>
      <trkpt lat="42.881241" lon="0.905045">
        <ele>1538.7</ele>
        <time>2012-12-15T10:06:49Z</time>
      </trkpt>
      <trkpt lat="42.881195" lon="0.905093">
        <ele>1540.7</ele>
        <time>2012-12-15T10:14:10Z</time>
      </trkpt>
      <trkpt lat="42.881094" lon="0.905147">
        <ele>1542.6</ele>
        <time>2012-12-15T10:14:26Z</time>
      </trkpt>
      <trkpt lat="42.881001" lon="0.905186">
        <ele>1543.5</ele>
        <time>2012-12-15T10:14:40Z</time>
      </trkpt>
      <trkpt lat="42.880911" lon="0.905228">
        <ele>1545.5</ele>
        <time>2012-12-15T10:14:55Z</time>
      </trkpt>
      <trkpt lat="42.880811" lon="0.905283">
        <ele>1547.9</ele>
        <time>2012-12-15T10:15:10Z</time>
      </trkpt>
      <trkpt lat="42.880729" lon="0.905279">
        <ele>1548.3</ele>
        <time>2012-12-15T10:15:26Z</time>
      </trkpt>
      <trkpt lat="42.880641" lon="0.905308">
        <ele>1551.2</ele>
        <time>2012-12-15T10:15:50Z</time>
      </trkpt>
      <trkpt lat="42.880537" lon="0.905339">
        <ele>1553.2</ele>
        <time>2012-12-15T10:16:06Z</time>
      </trkpt>
      <trkpt lat="42.880448" lon="0.905392">
        <ele>1554.6</ele>
        <time>2012-12-15T10:16:21Z</time>
      </trkpt>
      <trkpt lat="42.880354" lon="0.905420">
        <ele>1556.5</ele>
        <time>2012-12-15T10:16:37Z</time>
      </trkpt>
      <trkpt lat="42.880258" lon="0.905459">
        <ele>1558.4</ele>
        <time>2012-12-15T10:16:55Z</time>
      </trkpt>
      <trkpt lat="42.880171" lon="0.905483">
        <ele>1558.9</ele>
        <time>2012-12-15T10:17:09Z</time>
      </trkpt>
      <trkpt lat="42.880076" lon="0.905541">
        <ele>1561.8</ele>
        <time>2012-12-15T10:17:25Z</time>
      </trkpt>
      <trkpt lat="42.879987" lon="0.905523">
        <ele>1561.8</ele>
        <time>2012-12-15T10:17:39Z</time>
      </trkpt>
      <trkpt lat="42.879918" lon="0.905560">
        <ele>1563.2</ele>
        <time>2012-12-15T10:17:55Z</time>
      </trkpt>
      <trkpt lat="42.879836" lon="0.905571">
        <ele>1565.6</ele>
        <time>2012-12-15T10:18:15Z</time>
      </trkpt>
      <trkpt lat="42.879762" lon="0.905574">
        <ele>1567.6</ele>
        <time>2012-12-15T10:18:32Z</time>
      </trkpt>
      <trkpt lat="42.879657" lon="0.905628">
        <ele>1570.0</ele>
        <time>2012-12-15T10:18:57Z</time>
      </trkpt>
      <trkpt lat="42.879568" lon="0.905613">
        <ele>1570.9</ele>
        <time>2012-12-15T10:19:13Z</time>
      </trkpt>
      <trkpt lat="42.879476" lon="0.905643">
        <ele>1572.4</ele>
        <time>2012-12-15T10:19:33Z</time>
      </trkpt>
      <trkpt lat="42.879396" lon="0.905673">
        <ele>1573.8</ele>
        <time>2012-12-15T10:19:50Z</time>
      </trkpt>
      <trkpt lat="42.879309" lon="0.905718">
        <ele>1575.3</ele>
        <time>2012-12-15T10:20:07Z</time>
      </trkpt>
      <trkpt lat="42.879197" lon="0.905742">
        <ele>1575.7</ele>
        <time>2012-12-15T10:20:25Z</time>
      </trkpt>
      <trkpt lat="42.879110" lon="0.905807">
        <ele>1577.2</ele>
        <time>2012-12-15T10:20:44Z</time>
      </trkpt>
      <trkpt lat="42.879003" lon="0.905811">
        <ele>1577.2</ele>
        <time>2012-12-15T10:21:05Z</time>
      </trkpt>
      <trkpt lat="42.878907" lon="0.905845">
        <ele>1578.6</ele>
        <time>2012-12-15T10:21:25Z</time>
      </trkpt>
      <trkpt lat="42.878819" lon="0.905869">
        <ele>1579.1</ele>
        <time>2012-12-15T10:21:40Z</time>
      </trkpt>
      <trkpt lat="42.878722" lon="0.905873">
        <ele>1579.6</ele>
        <time>2012-12-15T10:21:57Z</time>
      </trkpt>
      <trkpt lat="42.878619" lon="0.905903">
        <ele>1580.5</ele>
        <time>2012-12-15T10:22:12Z</time>
      </trkpt>
      <trkpt lat="42.878531" lon="0.905897">
        <ele>1581.5</ele>
        <time>2012-12-15T10:22:26Z</time>
      </trkpt>
      <trkpt lat="42.878428" lon="0.905896">
        <ele>1582.5</ele>
        <time>2012-12-15T10:22:42Z</time>
      </trkpt>
      <trkpt lat="42.878328" lon="0.905874">
        <ele>1582.9</ele>
        <time>2012-12-15T10:22:56Z</time>
      </trkpt>
      <trkpt lat="42.878243" lon="0.905857">
        <ele>1583.9</ele>
        <time>2012-12-15T10:23:13Z</time>
      </trkpt>
      <trkpt lat="42.878145" lon="0.905850">
        <ele>1585.3</ele>
        <time>2012-12-15T10:23:31Z</time>
      </trkpt>
      <trkpt lat="42.878064" lon="0.905813">
        <ele>1585.8</ele>
        <time>2012-12-15T10:23:46Z</time>
      </trkpt>
      <trkpt lat="42.877972" lon="0.905782">
        <ele>1588.2</ele>
        <time>2012-12-15T10:24:02Z</time>
      </trkpt>
      <trkpt lat="42.877896" lon="0.905724">
        <ele>1588.7</ele>
        <time>2012-12-15T10:24:18Z</time>
      </trkpt>
      <trkpt lat="42.877798" lon="0.905678">
        <ele>1590.2</ele>
        <time>2012-12-15T10:24:32Z</time>
      </trkpt>
      <trkpt lat="42.877720" lon="0.905635">
        <ele>1591.1</ele>
        <time>2012-12-15T10:24:47Z</time>
      </trkpt>
      <trkpt lat="42.877645" lon="0.905598">
        <ele>1592.1</ele>
        <time>2012-12-15T10:25:02Z</time>
      </trkpt>
      <trkpt lat="42.877553" lon="0.905585">
        <ele>1593.5</ele>
        <time>2012-12-15T10:25:17Z</time>
      </trkpt>
      <trkpt lat="42.877455" lon="0.905569">
        <ele>1595.4</ele>
        <time>2012-12-15T10:25:34Z</time>
      </trkpt>
      <trkpt lat="42.877363" lon="0.905569">
        <ele>1597.4</ele>
        <time>2012-12-15T10:25:52Z</time>
      </trkpt>
      <trkpt lat="42.877275" lon="0.905536">
        <ele>1599.8</ele>
        <time>2012-12-15T10:26:09Z</time>
      </trkpt>
      <trkpt lat="42.877196" lon="0.905533">
        <ele>1601.2</ele>
        <time>2012-12-15T10:26:28Z</time>
      </trkpt>
      <trkpt lat="42.877134" lon="0.905581">
        <ele>1603.6</ele>
        <time>2012-12-15T10:27:12Z</time>
      </trkpt>
      <trkpt lat="42.877081" lon="0.905608">
        <ele>1605.5</ele>
        <time>2012-12-15T10:27:36Z</time>
      </trkpt>
      <trkpt lat="42.877031" lon="0.905622">
        <ele>1606.0</ele>
        <time>2012-12-15T10:30:37Z</time>
        <name>Col de Quimes</name>
      </trkpt>
      <trkpt lat="42.876951" lon="0.905566">
        <ele>1607.5</ele>
        <time>2012-12-15T10:30:54Z</time>
      </trkpt>
      <trkpt lat="42.876875" lon="0.905492">
        <ele>1608.9</ele>
        <time>2012-12-15T10:31:23Z</time>
      </trkpt>
      <trkpt lat="42.876806" lon="0.905420">
        <ele>1611.8</ele>
        <time>2012-12-15T10:31:42Z</time>
      </trkpt>
      <trkpt lat="42.876724" lon="0.905348">
        <ele>1614.7</ele>
        <time>2012-12-15T10:31:59Z</time>
      </trkpt>
      <trkpt lat="42.876649" lon="0.905286">
        <ele>1616.1</ele>
        <time>2012-12-15T10:32:14Z</time>
      </trkpt>
      <trkpt lat="42.876570" lon="0.905233">
        <ele>1619.5</ele>
        <time>2012-12-15T10:32:29Z</time>
      </trkpt>
      <trkpt lat="42.876495" lon="0.905179">
        <ele>1621.4</ele>
        <time>2012-12-15T10:32:44Z</time>
      </trkpt>
      <trkpt lat="42.876413" lon="0.905118">
        <ele>1622.8</ele>
        <time>2012-12-15T10:32:58Z</time>
      </trkpt>
      <trkpt lat="42.876339" lon="0.905067">
        <ele>1625.7</ele>
        <time>2012-12-15T10:33:13Z</time>
      </trkpt>
      <trkpt lat="42.876272" lon="0.904990">
        <ele>1628.1</ele>
        <time>2012-12-15T10:33:32Z</time>
      </trkpt>
      <trkpt lat="42.876205" lon="0.904904">
        <ele>1630.5</ele>
        <time>2012-12-15T10:33:49Z</time>
      </trkpt>
      <trkpt lat="42.876149" lon="0.904832">
        <ele>1633.9</ele>
        <time>2012-12-15T10:34:06Z</time>
      </trkpt>
      <trkpt lat="42.876087" lon="0.904755">
        <ele>1636.3</ele>
        <time>2012-12-15T10:34:22Z</time>
      </trkpt>
      <trkpt lat="42.876025" lon="0.904682">
        <ele>1639.2</ele>
        <time>2012-12-15T10:34:41Z</time>
      </trkpt>
      <trkpt lat="42.875946" lon="0.904619">
        <ele>1642.1</ele>
        <time>2012-12-15T10:35:06Z</time>
      </trkpt>
      <trkpt lat="42.875890" lon="0.904543">
        <ele>1644.5</ele>
        <time>2012-12-15T10:35:24Z</time>
      </trkpt>
      <trkpt lat="42.875793" lon="0.904521">
        <ele>1650.2</ele>
        <time>2012-12-15T10:35:57Z</time>
      </trkpt>
      <trkpt lat="42.875706" lon="0.904472">
        <ele>1654.1</ele>
        <time>2012-12-15T10:36:25Z</time>
      </trkpt>
      <trkpt lat="42.875619" lon="0.904445">
        <ele>1658.4</ele>
        <time>2012-12-15T10:36:54Z</time>
      </trkpt>
      <trkpt lat="42.875549" lon="0.904384">
        <ele>1660.8</ele>
        <time>2012-12-15T10:37:18Z</time>
      </trkpt>
      <trkpt lat="42.875469" lon="0.904401">
        <ele>1665.6</ele>
        <time>2012-12-15T10:37:52Z</time>
      </trkpt>
      <trkpt lat="42.875389" lon="0.904436">
        <ele>1669.5</ele>
        <time>2012-12-15T10:38:22Z</time>
      </trkpt>
      <trkpt lat="42.875311" lon="0.904379">
        <ele>1673.3</ele>
        <time>2012-12-15T10:38:49Z</time>
      </trkpt>
      <trkpt lat="42.875227" lon="0.904338">
        <ele>1678.1</ele>
        <time>2012-12-15T10:39:21Z</time>
      </trkpt>
      <trkpt lat="42.875149" lon="0.904315">
        <ele>1682.4</ele>
        <time>2012-12-15T10:39:50Z</time>
      </trkpt>
      <trkpt lat="42.875060" lon="0.904279">
        <ele>1687.2</ele>
        <time>2012-12-15T10:40:17Z</time>
      </trkpt>
      <trkpt lat="42.875000" lon="0.904349">
        <ele>1691.6</ele>
        <time>2012-12-15T10:40:42Z</time>
      </trkpt>
      <trkpt lat="42.874924" lon="0.904382">
        <ele>1695.9</ele>
        <time>2012-12-15T10:41:04Z</time>
      </trkpt>
      <trkpt lat="42.874832" lon="0.904335">
        <ele>1700.7</ele>
        <time>2012-12-15T10:41:31Z</time>
      </trkpt>
      <trkpt lat="42.874753" lon="0.904285">
        <ele>1705.5</ele>
        <time>2012-12-15T10:41:57Z</time>
      </trkpt>
      <trkpt lat="42.874684" lon="0.904209">
        <ele>1709.4</ele>
        <time>2012-12-15T10:42:22Z</time>
      </trkpt>
      <trkpt lat="42.874604" lon="0.904238">
        <ele>1715.1</ele>
        <time>2012-12-15T10:42:54Z</time>
      </trkpt>
      <trkpt lat="42.874524" lon="0.904226">
        <ele>1718.5</ele>
        <time>2012-12-15T10:43:20Z</time>
      </trkpt>
      <trkpt lat="42.874461" lon="0.904183">
        <ele>1721.9</ele>
        <time>2012-12-15T10:43:46Z</time>
      </trkpt>
      <trkpt lat="42.874392" lon="0.904185">
        <ele>1727.6</ele>
        <time>2012-12-15T10:44:19Z</time>
      </trkpt>
      <trkpt lat="42.874291" lon="0.904128">
        <ele>1732.9</ele>
        <time>2012-12-15T10:44:52Z</time>
      </trkpt>
      <trkpt lat="42.874220" lon="0.904100">
        <ele>1737.7</ele>
        <time>2012-12-15T10:45:56Z</time>
      </trkpt>
      <trkpt lat="42.874166" lon="0.904019">
        <ele>1742.5</ele>
        <time>2012-12-15T10:46:54Z</time>
      </trkpt>
      <trkpt lat="42.874108" lon="0.903882">
        <ele>1745.9</ele>
        <time>2012-12-15T10:47:44Z</time>
      </trkpt>
      <trkpt lat="42.874057" lon="0.903772">
        <ele>1749.3</ele>
        <time>2012-12-15T10:48:19Z</time>
      </trkpt>
      <trkpt lat="42.874021" lon="0.903650">
        <ele>1752.1</ele>
        <time>2012-12-15T10:48:44Z</time>
      </trkpt>
      <trkpt lat="42.874015" lon="0.903556">
        <ele>1753.1</ele>
        <time>2012-12-15T10:54:09Z</time>
      </trkpt>
      <trkpt lat="42.874056" lon="0.903453">
        <ele>1748.8</ele>
        <time>2012-12-15T10:54:50Z</time>
      </trkpt>
      <trkpt lat="42.874052" lon="0.903322">
        <ele>1748.8</ele>
        <time>2012-12-15T10:55:09Z</time>
      </trkpt>
      <trkpt lat="42.874015" lon="0.903224">
        <ele>1749.7</ele>
        <time>2012-12-15T10:55:26Z</time>
      </trkpt>
      <trkpt lat="42.873983" lon="0.903096">
        <ele>1751.7</ele>
        <time>2012-12-15T10:55:47Z</time>
      </trkpt>
      <trkpt lat="42.873944" lon="0.902976">
        <ele>1752.1</ele>
        <time>2012-12-15T10:56:15Z</time>
      </trkpt>
      <trkpt lat="42.873938" lon="0.902845">
        <ele>1750.7</ele>
        <time>2012-12-15T10:56:29Z</time>
      </trkpt>
      <trkpt lat="42.873936" lon="0.902717">
        <ele>1750.2</ele>
        <time>2012-12-15T10:56:47Z</time>
      </trkpt>
      <trkpt lat="42.873910" lon="0.902586">
        <ele>1749.3</ele>
        <time>2012-12-15T10:57:03Z</time>
      </trkpt>
      <trkpt lat="42.873901" lon="0.902446">
        <ele>1748.3</ele>
        <time>2012-12-15T10:57:39Z</time>
      </trkpt>
      <trkpt lat="42.873874" lon="0.902328">
        <ele>1749.7</ele>
        <time>2012-12-15T10:58:12Z</time>
      </trkpt>
      <trkpt lat="42.873855" lon="0.902198">
        <ele>1750.2</ele>
        <time>2012-12-15T10:58:31Z</time>
      </trkpt>
      <trkpt lat="42.873842" lon="0.902071">
        <ele>1750.7</ele>
        <time>2012-12-15T10:58:45Z</time>
      </trkpt>
      <trkpt lat="42.873820" lon="0.901954">
        <ele>1751.7</ele>
        <time>2012-12-15T10:59:01Z</time>
      </trkpt>
      <trkpt lat="42.873802" lon="0.901853">
        <ele>1752.1</ele>
        <time>2012-12-15T11:00:56Z</time>
      </trkpt>
      <trkpt lat="42.873779" lon="0.901738">
        <ele>1752.6</ele>
        <time>2012-12-15T11:01:11Z</time>
      </trkpt>
      <trkpt lat="42.873744" lon="0.901624">
        <ele>1753.1</ele>
        <time>2012-12-15T11:01:26Z</time>
      </trkpt>
      <trkpt lat="42.873703" lon="0.901506">
        <ele>1755.5</ele>
        <time>2012-12-15T11:01:39Z</time>
      </trkpt>
      <trkpt lat="42.873657" lon="0.901391">
        <ele>1758.9</ele>
        <time>2012-12-15T11:01:53Z</time>
      </trkpt>
      <trkpt lat="42.873617" lon="0.901270">
        <ele>1762.2</ele>
        <time>2012-12-15T11:02:14Z</time>
      </trkpt>
      <trkpt lat="42.873589" lon="0.901148">
        <ele>1765.6</ele>
        <time>2012-12-15T11:02:43Z</time>
      </trkpt>
      <trkpt lat="42.873573" lon="0.901032">
        <ele>1768.0</ele>
        <time>2012-12-15T11:04:17Z</time>
      </trkpt>
      <trkpt lat="42.873571" lon="0.900900">
        <ele>1770.9</ele>
        <time>2012-12-15T11:04:34Z</time>
      </trkpt>
      <trkpt lat="42.873551" lon="0.900783">
        <ele>1773.3</ele>
        <time>2012-12-15T11:04:53Z</time>
      </trkpt>
      <trkpt lat="42.873531" lon="0.900653">
        <ele>1776.2</ele>
        <time>2012-12-15T11:05:11Z</time>
      </trkpt>
      <trkpt lat="42.873506" lon="0.900538">
        <ele>1778.1</ele>
        <time>2012-12-15T11:05:27Z</time>
      </trkpt>
      <trkpt lat="42.873469" lon="0.900426">
        <ele>1780.0</ele>
        <time>2012-12-15T11:05:41Z</time>
      </trkpt>
      <trkpt lat="42.873428" lon="0.900314">
        <ele>1782.4</ele>
        <time>2012-12-15T11:05:56Z</time>
      </trkpt>
      <trkpt lat="42.873391" lon="0.900200">
        <ele>1783.9</ele>
        <time>2012-12-15T11:06:11Z</time>
      </trkpt>
      <trkpt lat="42.873354" lon="0.900097">
        <ele>1786.3</ele>
        <time>2012-12-15T11:06:25Z</time>
      </trkpt>
      <trkpt lat="42.873304" lon="0.899998">
        <ele>1789.2</ele>
        <time>2012-12-15T11:06:39Z</time>
      </trkpt>
      <trkpt lat="42.873258" lon="0.899897">
        <ele>1792.5</ele>
        <time>2012-12-15T11:06:56Z</time>
      </trkpt>
      <trkpt lat="42.873210" lon="0.899800">
        <ele>1795.4</ele>
        <time>2012-12-15T11:07:12Z</time>
      </trkpt>
      <trkpt lat="42.873156" lon="0.899710">
        <ele>1798.8</ele>
        <time>2012-12-15T11:07:29Z</time>
      </trkpt>
      <trkpt lat="42.873108" lon="0.899641">
        <ele>1803.1</ele>
        <time>2012-12-15T11:07:50Z</time>
      </trkpt>
      <trkpt lat="42.873042" lon="0.899577">
        <ele>1806.9</ele>
        <time>2012-12-15T11:08:13Z</time>
      </trkpt>
      <trkpt lat="42.872963" lon="0.899515">
        <ele>1812.7</ele>
        <time>2012-12-15T11:08:38Z</time>
      </trkpt>
      <trkpt lat="42.872903" lon="0.899436">
        <ele>1817.5</ele>
        <time>2012-12-15T11:09:01Z</time>
      </trkpt>
      <trkpt lat="42.872845" lon="0.899351">
        <ele>1823.3</ele>
        <time>2012-12-15T11:09:51Z</time>
      </trkpt>
      <trkpt lat="42.872796" lon="0.899290">
        <ele>1826.2</ele>
        <time>2012-12-15T11:10:12Z</time>
      </trkpt>
      <trkpt lat="42.872753" lon="0.899163">
        <ele>1829.5</ele>
        <time>2012-12-15T11:10:30Z</time>
      </trkpt>
      <trkpt lat="42.872733" lon="0.899051">
        <ele>1831.9</ele>
        <time>2012-12-15T11:11:48Z</time>
      </trkpt>
      <trkpt lat="42.872701" lon="0.898949">
        <ele>1832.9</ele>
        <time>2012-12-15T11:13:15Z</time>
      </trkpt>
      <trkpt lat="42.872684" lon="0.898827">
        <ele>1834.3</ele>
        <time>2012-12-15T11:13:31Z</time>
      </trkpt>
      <trkpt lat="42.872662" lon="0.898706">
        <ele>1836.3</ele>
        <time>2012-12-15T11:13:45Z</time>
      </trkpt>
      <trkpt lat="42.872634" lon="0.898575">
        <ele>1837.2</ele>
        <time>2012-12-15T11:13:59Z</time>
      </trkpt>
      <trkpt lat="42.872594" lon="0.898463">
        <ele>1839.1</ele>
        <time>2012-12-15T11:14:15Z</time>
      </trkpt>
      <trkpt lat="42.872553" lon="0.898357">
        <ele>1841.5</ele>
        <time>2012-12-15T11:14:32Z</time>
      </trkpt>
      <trkpt lat="42.872512" lon="0.898249">
        <ele>1843.0</ele>
        <time>2012-12-15T11:14:47Z</time>
      </trkpt>
      <trkpt lat="42.872481" lon="0.898126">
        <ele>1844.9</ele>
        <time>2012-12-15T11:15:03Z</time>
      </trkpt>
      <trkpt lat="42.872458" lon="0.898007">
        <ele>1846.8</ele>
        <time>2012-12-15T11:15:19Z</time>
      </trkpt>
      <trkpt lat="42.872420" lon="0.897905">
        <ele>1847.8</ele>
        <time>2012-12-15T11:15:36Z</time>
      </trkpt>
      <trkpt lat="42.872381" lon="0.897846">
        <ele>1850.7</ele>
        <time>2012-12-15T11:16:51Z</time>
      </trkpt>
      <trkpt lat="42.872338" lon="0.897712">
        <ele>1852.6</ele>
        <time>2012-12-15T11:17:06Z</time>
      </trkpt>
      <trkpt lat="42.872303" lon="0.897592">
        <ele>1854.0</ele>
        <time>2012-12-15T11:17:20Z</time>
      </trkpt>
      <trkpt lat="42.872281" lon="0.897469">
        <ele>1855.5</ele>
        <time>2012-12-15T11:17:35Z</time>
      </trkpt>
      <trkpt lat="42.872254" lon="0.897354">
        <ele>1857.4</ele>
        <time>2012-12-15T11:17:49Z</time>
      </trkpt>
      <trkpt lat="42.872233" lon="0.897233">
        <ele>1859.3</ele>
        <time>2012-12-15T11:18:03Z</time>
      </trkpt>
      <trkpt lat="42.872205" lon="0.897117">
        <ele>1859.8</ele>
        <time>2012-12-15T11:18:15Z</time>
      </trkpt>
      <trkpt lat="42.872175" lon="0.896982">
        <ele>1862.2</ele>
        <time>2012-12-15T11:18:30Z</time>
      </trkpt>
      <trkpt lat="42.872132" lon="0.896882">
        <ele>1864.1</ele>
        <time>2012-12-15T11:18:45Z</time>
      </trkpt>
      <trkpt lat="42.872100" lon="0.896772">
        <ele>1867.5</ele>
        <time>2012-12-15T11:18:59Z</time>
      </trkpt>
      <trkpt lat="42.872073" lon="0.896656">
        <ele>1869.9</ele>
        <time>2012-12-15T11:19:15Z</time>
      </trkpt>
      <trkpt lat="42.872031" lon="0.896559">
        <ele>1873.3</ele>
        <time>2012-12-15T11:19:33Z</time>
      </trkpt>
      <trkpt lat="42.871988" lon="0.896467">
        <ele>1876.6</ele>
        <time>2012-12-15T11:19:53Z</time>
      </trkpt>
      <trkpt lat="42.871962" lon="0.896375">
        <ele>1880.5</ele>
        <time>2012-12-15T11:20:12Z</time>
      </trkpt>
      <trkpt lat="42.871950" lon="0.896243">
        <ele>1883.8</ele>
        <time>2012-12-15T11:20:33Z</time>
      </trkpt>
      <trkpt lat="42.871949" lon="0.896133">
        <ele>1886.7</ele>
        <time>2012-12-15T11:20:53Z</time>
      </trkpt>
      <trkpt lat="42.871921" lon="0.896030">
        <ele>1890.1</ele>
        <time>2012-12-15T11:21:16Z</time>
      </trkpt>
      <trkpt lat="42.871892" lon="0.895897">
        <ele>1894.9</ele>
        <time>2012-12-15T11:21:41Z</time>
      </trkpt>
      <trkpt lat="42.871869" lon="0.895797">
        <ele>1899.2</ele>
        <time>2012-12-15T11:22:04Z</time>
      </trkpt>
      <trkpt lat="42.871848" lon="0.895674">
        <ele>1903.6</ele>
        <time>2012-12-15T11:22:24Z</time>
      </trkpt>
      <trkpt lat="42.871821" lon="0.895570">
        <ele>1905.9</ele>
        <time>2012-12-15T11:22:37Z</time>
      </trkpt>
      <trkpt lat="42.871793" lon="0.895477">
        <ele>1909.3</ele>
        <time>2012-12-15T11:22:51Z</time>
      </trkpt>
      <trkpt lat="42.871789" lon="0.895369">
        <ele>1912.7</ele>
        <time>2012-12-15T11:23:01Z</time>
      </trkpt>
      <trkpt lat="42.871740" lon="0.895289">
        <ele>1916.5</ele>
        <time>2012-12-15T11:23:20Z</time>
      </trkpt>
      <trkpt lat="42.871719" lon="0.895193">
        <ele>1919.4</ele>
        <time>2012-12-15T11:23:49Z</time>
      </trkpt>
      <trkpt lat="42.871689" lon="0.895102">
        <ele>1922.8</ele>
        <time>2012-12-15T11:24:08Z</time>
      </trkpt>
      <trkpt lat="42.871664" lon="0.894984">
        <ele>1926.1</ele>
        <time>2012-12-15T11:24:30Z</time>
      </trkpt>
      <trkpt lat="42.871655" lon="0.894898">
        <ele>1930.0</ele>
        <time>2012-12-15T11:24:54Z</time>
      </trkpt>
      <trkpt lat="42.871628" lon="0.894822">
        <ele>1932.9</ele>
        <time>2012-12-15T11:25:12Z</time>
      </trkpt>
      <trkpt lat="42.871595" lon="0.894736">
        <ele>1937.2</ele>
        <time>2012-12-15T11:25:37Z</time>
      </trkpt>
      <trkpt lat="42.871584" lon="0.894619">
        <ele>1942.5</ele>
        <time>2012-12-15T11:26:33Z</time>
      </trkpt>
      <trkpt lat="42.871574" lon="0.894481">
        <ele>1951.1</ele>
        <time>2012-12-15T11:27:13Z</time>
      </trkpt>
      <trkpt lat="42.871568" lon="0.894376">
        <ele>1951.1</ele>
        <time>2012-12-15T11:28:36Z</time>
      </trkpt>
      <trkpt lat="42.871536" lon="0.894349">
        <ele>1952.1</ele>
        <time>2012-12-15T11:33:21Z</time>
      </trkpt>
      <trkpt lat="42.871468" lon="0.894227">
        <ele>1949.2</ele>
        <time>2012-12-15T11:33:38Z</time>
      </trkpt>
      <trkpt lat="42.871403" lon="0.894131">
        <ele>1948.7</ele>
        <time>2012-12-15T11:33:48Z</time>
      </trkpt>
      <trkpt lat="42.871327" lon="0.894041">
        <ele>1947.3</ele>
        <time>2012-12-15T11:33:58Z</time>
      </trkpt>
      <trkpt lat="42.871266" lon="0.893942">
        <ele>1947.3</ele>
        <time>2012-12-15T11:34:07Z</time>
      </trkpt>
      <trkpt lat="42.871206" lon="0.893856">
        <ele>1947.3</ele>
        <time>2012-12-15T11:34:16Z</time>
      </trkpt>
      <trkpt lat="42.871149" lon="0.893754">
        <ele>1946.8</ele>
        <time>2012-12-15T11:34:26Z</time>
      </trkpt>
      <trkpt lat="42.871081" lon="0.893663">
        <ele>1948.2</ele>
        <time>2012-12-15T11:34:37Z</time>
      </trkpt>
      <trkpt lat="42.871016" lon="0.893551">
        <ele>1949.2</ele>
        <time>2012-12-15T11:34:47Z</time>
      </trkpt>
      <trkpt lat="42.870970" lon="0.893440">
        <ele>1948.7</ele>
        <time>2012-12-15T11:34:56Z</time>
      </trkpt>
      <trkpt lat="42.870920" lon="0.893344">
        <ele>1948.7</ele>
        <time>2012-12-15T11:35:05Z</time>
      </trkpt>
      <trkpt lat="42.870870" lon="0.893253">
        <ele>1949.2</ele>
        <time>2012-12-15T11:35:14Z</time>
      </trkpt>
      <trkpt lat="42.870830" lon="0.893142">
        <ele>1948.2</ele>
        <time>2012-12-15T11:35:23Z</time>
      </trkpt>
      <trkpt lat="42.870775" lon="0.893024">
        <ele>1948.2</ele>
        <time>2012-12-15T11:35:33Z</time>
      </trkpt>
      <trkpt lat="42.870720" lon="0.892914">
        <ele>1947.3</ele>
        <time>2012-12-15T11:35:44Z</time>
      </trkpt>
      <trkpt lat="42.870655" lon="0.892822">
        <ele>1946.3</ele>
        <time>2012-12-15T11:35:55Z</time>
      </trkpt>
      <trkpt lat="42.870586" lon="0.892730">
        <ele>1945.8</ele>
        <time>2012-12-15T11:36:06Z</time>
      </trkpt>
      <trkpt lat="42.870501" lon="0.892647">
        <ele>1945.8</ele>
        <time>2012-12-15T11:36:17Z</time>
      </trkpt>
      <trkpt lat="42.870419" lon="0.892601">
        <ele>1946.3</ele>
        <time>2012-12-15T11:36:28Z</time>
      </trkpt>
      <trkpt lat="42.870339" lon="0.892547">
        <ele>1946.3</ele>
        <time>2012-12-15T11:36:39Z</time>
      </trkpt>
      <trkpt lat="42.870266" lon="0.892507">
        <ele>1946.8</ele>
        <time>2012-12-15T11:36:51Z</time>
      </trkpt>
      <trkpt lat="42.870186" lon="0.892475">
        <ele>1947.8</ele>
        <time>2012-12-15T11:37:03Z</time>
      </trkpt>
      <trkpt lat="42.870128" lon="0.892422">
        <ele>1947.8</ele>
        <time>2012-12-15T11:37:35Z</time>
      </trkpt>
      <trkpt lat="42.870078" lon="0.892311">
        <ele>1947.8</ele>
        <time>2012-12-15T11:37:45Z</time>
      </trkpt>
      <trkpt lat="42.870027" lon="0.892202">
        <ele>1947.3</ele>
        <time>2012-12-15T11:37:54Z</time>
      </trkpt>
      <trkpt lat="42.869964" lon="0.892101">
        <ele>1944.9</ele>
        <time>2012-12-15T11:38:03Z</time>
      </trkpt>
      <trkpt lat="42.869887" lon="0.892021">
        <ele>1944.9</ele>
        <time>2012-12-15T11:38:13Z</time>
      </trkpt>
      <trkpt lat="42.869803" lon="0.891932">
        <ele>1945.4</ele>
        <time>2012-12-15T11:38:22Z</time>
      </trkpt>
      <trkpt lat="42.869726" lon="0.891848">
        <ele>1943.4</ele>
        <time>2012-12-15T11:38:30Z</time>
      </trkpt>
      <trkpt lat="42.869649" lon="0.891773">
        <ele>1943.0</ele>
        <time>2012-12-15T11:38:38Z</time>
      </trkpt>
      <trkpt lat="42.869585" lon="0.891678">
        <ele>1943.0</ele>
        <time>2012-12-15T11:38:46Z</time>
      </trkpt>
      <trkpt lat="42.869522" lon="0.891572">
        <ele>1942.5</ele>
        <time>2012-12-15T11:38:56Z</time>
      </trkpt>
      <trkpt lat="42.869485" lon="0.891471">
        <ele>1942.5</ele>
        <time>2012-12-15T11:39:11Z</time>
      </trkpt>
      <trkpt lat="42.869419" lon="0.891380">
        <ele>1943.0</ele>
        <time>2012-12-15T11:39:19Z</time>
      </trkpt>
      <trkpt lat="42.869365" lon="0.891245">
        <ele>1943.4</ele>
        <time>2012-12-15T11:39:28Z</time>
      </trkpt>
      <trkpt lat="42.869303" lon="0.891132">
        <ele>1944.9</ele>
        <time>2012-12-15T11:39:37Z</time>
      </trkpt>
      <trkpt lat="42.869263" lon="0.891017">
        <ele>1946.3</ele>
        <time>2012-12-15T11:39:46Z</time>
      </trkpt>
      <trkpt lat="42.869228" lon="0.890902">
        <ele>1947.8</ele>
        <time>2012-12-15T11:39:56Z</time>
      </trkpt>
      <trkpt lat="42.869205" lon="0.890783">
        <ele>1949.7</ele>
        <time>2012-12-15T11:40:07Z</time>
      </trkpt>
      <trkpt lat="42.869174" lon="0.890666">
        <ele>1951.6</ele>
        <time>2012-12-15T11:40:20Z</time>
      </trkpt>
      <trkpt lat="42.869156" lon="0.890535">
        <ele>1954.0</ele>
        <time>2012-12-15T11:40:34Z</time>
      </trkpt>
      <trkpt lat="42.869142" lon="0.890448">
        <ele>1955.0</ele>
        <time>2012-12-15T11:41:04Z</time>
      </trkpt>
      <trkpt lat="42.869122" lon="0.890315">
        <ele>1957.9</ele>
        <time>2012-12-15T11:41:18Z</time>
      </trkpt>
      <trkpt lat="42.869089" lon="0.890196">
        <ele>1960.3</ele>
        <time>2012-12-15T11:41:30Z</time>
      </trkpt>
      <trkpt lat="42.869061" lon="0.890076">
        <ele>1961.2</ele>
        <time>2012-12-15T11:41:42Z</time>
      </trkpt>
      <trkpt lat="42.869038" lon="0.889955">
        <ele>1963.2</ele>
        <time>2012-12-15T11:41:54Z</time>
      </trkpt>
      <trkpt lat="42.869009" lon="0.889835">
        <ele>1964.6</ele>
        <time>2012-12-15T11:42:07Z</time>
      </trkpt>
      <trkpt lat="42.869006" lon="0.889822">
        <ele>1963.6</ele>
        <time>2012-12-15T11:45:18Z</time>
      </trkpt>
      <trkpt lat="42.868983" lon="0.889783">
        <ele>1965.6</ele>
        <time>2012-12-15T11:47:41Z</time>
      </trkpt>
      <trkpt lat="42.868937" lon="0.889674">
        <ele>1967.0</ele>
        <time>2012-12-15T11:47:54Z</time>
      </trkpt>
      <trkpt lat="42.868876" lon="0.889588">
        <ele>1968.9</ele>
        <time>2012-12-15T11:48:13Z</time>
      </trkpt>
      <trkpt lat="42.868810" lon="0.889504">
        <ele>1971.3</ele>
        <time>2012-12-15T11:48:30Z</time>
      </trkpt>
      <trkpt lat="42.868736" lon="0.889424">
        <ele>1973.2</ele>
        <time>2012-12-15T11:48:45Z</time>
      </trkpt>
      <trkpt lat="42.868698" lon="0.889318">
        <ele>1976.1</ele>
        <time>2012-12-15T11:49:05Z</time>
      </trkpt>
      <trkpt lat="42.868676" lon="0.889191">
        <ele>1979.5</ele>
        <time>2012-12-15T11:49:31Z</time>
      </trkpt>
      <trkpt lat="42.868628" lon="0.889090">
        <ele>1982.4</ele>
        <time>2012-12-15T11:49:56Z</time>
      </trkpt>
      <trkpt lat="42.868557" lon="0.889011">
        <ele>1984.3</ele>
        <time>2012-12-15T11:50:19Z</time>
      </trkpt>
      <trkpt lat="42.868511" lon="0.888904">
        <ele>1987.2</ele>
        <time>2012-12-15T11:50:40Z</time>
      </trkpt>
      <trkpt lat="42.868473" lon="0.888785">
        <ele>1990.6</ele>
        <time>2012-12-15T11:51:06Z</time>
      </trkpt>
      <trkpt lat="42.868421" lon="0.888669">
        <ele>1993.4</ele>
        <time>2012-12-15T11:51:32Z</time>
      </trkpt>
      <trkpt lat="42.868349" lon="0.888598">
        <ele>1997.3</ele>
        <time>2012-12-15T11:52:00Z</time>
      </trkpt>
      <trkpt lat="42.868309" lon="0.888491">
        <ele>2000.2</ele>
        <time>2012-12-15T11:52:24Z</time>
      </trkpt>
      <trkpt lat="42.868289" lon="0.888363">
        <ele>2003.5</ele>
        <time>2012-12-15T11:52:52Z</time>
      </trkpt>
      <trkpt lat="42.868285" lon="0.888223">
        <ele>2006.9</ele>
        <time>2012-12-15T11:53:18Z</time>
      </trkpt>
      <trkpt lat="42.868281" lon="0.888093">
        <ele>2011.2</ele>
        <time>2012-12-15T11:53:47Z</time>
      </trkpt>
      <trkpt lat="42.868279" lon="0.887973">
        <ele>2013.6</ele>
        <time>2012-12-15T11:54:11Z</time>
      </trkpt>
      <trkpt lat="42.868281" lon="0.887876">
        <ele>2015.5</ele>
        <time>2012-12-15T11:54:26Z</time>
      </trkpt>
      <trkpt lat="42.868273" lon="0.887777">
        <ele>2019.4</ele>
        <time>2012-12-15T11:54:48Z</time>
      </trkpt>
      <trkpt lat="42.868255" lon="0.887645">
        <ele>2023.7</ele>
        <time>2012-12-15T11:55:13Z</time>
      </trkpt>
      <trkpt lat="42.868244" lon="0.887520">
        <ele>2027.6</ele>
        <time>2012-12-15T11:55:46Z</time>
      </trkpt>
      <trkpt lat="42.868232" lon="0.887402">
        <ele>2030.9</ele>
        <time>2012-12-15T11:56:16Z</time>
      </trkpt>
      <trkpt lat="42.868197" lon="0.887270">
        <ele>2035.2</ele>
        <time>2012-12-15T11:56:58Z</time>
      </trkpt>
      <trkpt lat="42.868146" lon="0.887132">
        <ele>2042.5</ele>
        <time>2012-12-15T11:57:54Z</time>
      </trkpt>
      <trkpt lat="42.868128" lon="0.887002">
        <ele>2048.2</ele>
        <time>2012-12-15T11:58:49Z</time>
      </trkpt>
      <trkpt lat="42.868111" lon="0.886876">
        <ele>2054.5</ele>
        <time>2012-12-15T11:59:33Z</time>
      </trkpt>
      <trkpt lat="42.868083" lon="0.886719">
        <ele>2062.6</ele>
        <time>2012-12-15T12:00:28Z</time>
      </trkpt>
      <trkpt lat="42.868048" lon="0.886550">
        <ele>2068.4</ele>
        <time>2012-12-15T12:01:17Z</time>
      </trkpt>
      <trkpt lat="42.868032" lon="0.886435">
        <ele>2074.2</ele>
        <time>2012-12-15T12:01:53Z</time>
      </trkpt>
      <trkpt lat="42.868017" lon="0.886320">
        <ele>2078.5</ele>
        <time>2012-12-15T12:02:27Z</time>
      </trkpt>
      <trkpt lat="42.868021" lon="0.886204">
        <ele>2081.9</ele>
        <time>2012-12-15T12:02:53Z</time>
      </trkpt>
      <trkpt lat="42.868006" lon="0.886085">
        <ele>2083.3</ele>
        <time>2012-12-15T12:03:12Z</time>
      </trkpt>
      <trkpt lat="42.868005" lon="0.885969">
        <ele>2084.3</ele>
        <time>2012-12-15T12:03:29Z</time>
        <name>Pic de Paumaude</name>
      </trkpt>
      <trkpt lat="42.868020" lon="0.885844">
        <ele>2084.8</ele>
        <time>2012-12-15T12:03:42Z</time>
      </trkpt>
      <trkpt lat="42.868043" lon="0.885754">
        <ele>2083.8</ele>
        <time>2012-12-15T12:04:26Z</time>
      </trkpt>
      <trkpt lat="42.868048" lon="0.885613">
        <ele>2083.8</ele>
        <time>2012-12-15T12:04:37Z</time>
      </trkpt>
      <trkpt lat="42.868058" lon="0.885473">
        <ele>2083.3</ele>
        <time>2012-12-15T12:04:49Z</time>
      </trkpt>
      <trkpt lat="42.868053" lon="0.885339">
        <ele>2082.8</ele>
        <time>2012-12-15T12:05:01Z</time>
      </trkpt>
      <trkpt lat="42.868048" lon="0.885217">
        <ele>2082.4</ele>
        <time>2012-12-15T12:05:12Z</time>
      </trkpt>
      <trkpt lat="42.868061" lon="0.885100">
        <ele>2082.4</ele>
        <time>2012-12-15T12:05:24Z</time>
      </trkpt>
      <trkpt lat="42.868063" lon="0.884972">
        <ele>2082.4</ele>
        <time>2012-12-15T12:06:03Z</time>
      </trkpt>
      <trkpt lat="42.868088" lon="0.884858">
        <ele>2081.9</ele>
        <time>2012-12-15T12:07:03Z</time>
      </trkpt>
      <trkpt lat="42.868092" lon="0.884717">
        <ele>2078.5</ele>
        <time>2012-12-15T12:07:11Z</time>
      </trkpt>
      <trkpt lat="42.868103" lon="0.884591">
        <ele>2076.6</ele>
        <time>2012-12-15T12:07:20Z</time>
      </trkpt>
      <trkpt lat="42.868111" lon="0.884467">
        <ele>2074.7</ele>
        <time>2012-12-15T12:07:30Z</time>
      </trkpt>
      <trkpt lat="42.868091" lon="0.884337">
        <ele>2073.2</ele>
        <time>2012-12-15T12:07:39Z</time>
      </trkpt>
      <trkpt lat="42.868069" lon="0.884211">
        <ele>2070.3</ele>
        <time>2012-12-15T12:07:48Z</time>
      </trkpt>
      <trkpt lat="42.868062" lon="0.884077">
        <ele>2067.9</ele>
        <time>2012-12-15T12:07:58Z</time>
      </trkpt>
      <trkpt lat="42.868057" lon="0.883952">
        <ele>2064.6</ele>
        <time>2012-12-15T12:08:07Z</time>
      </trkpt>
      <trkpt lat="42.868048" lon="0.883824">
        <ele>2061.2</ele>
        <time>2012-12-15T12:08:15Z</time>
      </trkpt>
      <trkpt lat="42.868031" lon="0.883691">
        <ele>2058.8</ele>
        <time>2012-12-15T12:08:24Z</time>
      </trkpt>
      <trkpt lat="42.868005" lon="0.883577">
        <ele>2055.4</ele>
        <time>2012-12-15T12:08:32Z</time>
      </trkpt>
      <trkpt lat="42.867991" lon="0.883453">
        <ele>2053.5</ele>
        <time>2012-12-15T12:08:40Z</time>
      </trkpt>
      <trkpt lat="42.867978" lon="0.883313">
        <ele>2051.1</ele>
        <time>2012-12-15T12:08:49Z</time>
      </trkpt>
      <trkpt lat="42.867955" lon="0.883195">
        <ele>2048.2</ele>
        <time>2012-12-15T12:08:58Z</time>
      </trkpt>
      <trkpt lat="42.867935" lon="0.883067">
        <ele>2046.3</ele>
        <time>2012-12-15T12:09:08Z</time>
      </trkpt>
      <trkpt lat="42.867900" lon="0.882944">
        <ele>2045.3</ele>
        <time>2012-12-15T12:09:18Z</time>
      </trkpt>
      <trkpt lat="42.867881" lon="0.882848">
        <ele>2044.9</ele>
        <time>2012-12-15T12:09:27Z</time>
      </trkpt>
      <trkpt lat="42.867846" lon="0.882725">
        <ele>2044.4</ele>
        <time>2012-12-15T12:09:37Z</time>
      </trkpt>
      <trkpt lat="42.867828" lon="0.882598">
        <ele>2044.9</ele>
        <time>2012-12-15T12:09:48Z</time>
      </trkpt>
      <trkpt lat="42.867823" lon="0.882460">
        <ele>2044.9</ele>
        <time>2012-12-15T12:09:57Z</time>
      </trkpt>
      <trkpt lat="42.867824" lon="0.882334">
        <ele>2044.9</ele>
        <time>2012-12-15T12:10:08Z</time>
      </trkpt>
      <trkpt lat="42.867846" lon="0.882233">
        <ele>2042.9</ele>
        <time>2012-12-15T12:10:25Z</time>
      </trkpt>
      <trkpt lat="42.867856" lon="0.882129">
        <ele>2038.1</ele>
        <time>2012-12-15T12:10:37Z</time>
      </trkpt>
      <trkpt lat="42.867805" lon="0.882014">
        <ele>2036.2</ele>
        <time>2012-12-15T12:10:46Z</time>
      </trkpt>
      <trkpt lat="42.867806" lon="0.881875">
        <ele>2033.8</ele>
        <time>2012-12-15T12:10:57Z</time>
      </trkpt>
      <trkpt lat="42.867815" lon="0.881753">
        <ele>2030.4</ele>
        <time>2012-12-15T12:11:09Z</time>
      </trkpt>
      <trkpt lat="42.867836" lon="0.881628">
        <ele>2026.6</ele>
        <time>2012-12-15T12:11:20Z</time>
      </trkpt>
      <trkpt lat="42.867822" lon="0.881507">
        <ele>2025.2</ele>
        <time>2012-12-15T12:11:27Z</time>
      </trkpt>
      <trkpt lat="42.867819" lon="0.881375">
        <ele>2023.2</ele>
        <time>2012-12-15T12:11:36Z</time>
      </trkpt>
      <trkpt lat="42.867804" lon="0.881240">
        <ele>2020.8</ele>
        <time>2012-12-15T12:11:45Z</time>
      </trkpt>
      <trkpt lat="42.867798" lon="0.881123">
        <ele>2017.9</ele>
        <time>2012-12-15T12:11:54Z</time>
      </trkpt>
      <trkpt lat="42.867821" lon="0.880999">
        <ele>2015.5</ele>
        <time>2012-12-15T12:12:03Z</time>
      </trkpt>
      <trkpt lat="42.867786" lon="0.880863">
        <ele>2012.2</ele>
        <time>2012-12-15T12:12:12Z</time>
      </trkpt>
      <trkpt lat="42.867737" lon="0.880746">
        <ele>2009.8</ele>
        <time>2012-12-15T12:12:23Z</time>
      </trkpt>
      <trkpt lat="42.867693" lon="0.880620">
        <ele>2009.3</ele>
        <time>2012-12-15T12:12:35Z</time>
      </trkpt>
      <trkpt lat="42.867662" lon="0.880480">
        <ele>2007.8</ele>
        <time>2012-12-15T12:12:46Z</time>
      </trkpt>
      <trkpt lat="42.867641" lon="0.880351">
        <ele>2007.4</ele>
        <time>2012-12-15T12:12:57Z</time>
      </trkpt>
      <trkpt lat="42.867630" lon="0.880211">
        <ele>2005.9</ele>
        <time>2012-12-15T12:13:08Z</time>
      </trkpt>
      <trkpt lat="42.867600" lon="0.880073">
        <ele>2005.4</ele>
        <time>2012-12-15T12:13:20Z</time>
      </trkpt>
      <trkpt lat="42.867582" lon="0.879950">
        <ele>2005.4</ele>
        <time>2012-12-15T12:13:30Z</time>
      </trkpt>
      <trkpt lat="42.867570" lon="0.879830">
        <ele>2005.0</ele>
        <time>2012-12-15T12:13:38Z</time>
      </trkpt>
      <trkpt lat="42.867540" lon="0.879707">
        <ele>2005.0</ele>
        <time>2012-12-15T12:13:46Z</time>
      </trkpt>
      <trkpt lat="42.867510" lon="0.879586">
        <ele>2005.0</ele>
        <time>2012-12-15T12:13:55Z</time>
      </trkpt>
      <trkpt lat="42.867494" lon="0.879441">
        <ele>2005.0</ele>
        <time>2012-12-15T12:14:06Z</time>
      </trkpt>
      <trkpt lat="42.867475" lon="0.879301">
        <ele>2005.9</ele>
        <time>2012-12-15T12:14:16Z</time>
      </trkpt>
      <trkpt lat="42.867471" lon="0.879171">
        <ele>2006.9</ele>
        <time>2012-12-15T12:14:27Z</time>
      </trkpt>
      <trkpt lat="42.867458" lon="0.879050">
        <ele>2007.4</ele>
        <time>2012-12-15T12:14:39Z</time>
      </trkpt>
      <trkpt lat="42.867447" lon="0.878931">
        <ele>2008.8</ele>
        <time>2012-12-15T12:14:51Z</time>
      </trkpt>
      <trkpt lat="42.867436" lon="0.878804">
        <ele>2008.8</ele>
        <time>2012-12-15T12:15:03Z</time>
      </trkpt>
      <trkpt lat="42.867437" lon="0.878690">
        <ele>2010.2</ele>
        <time>2012-12-15T12:15:18Z</time>
      </trkpt>
      <trkpt lat="42.867413" lon="0.878578">
        <ele>2010.7</ele>
        <time>2012-12-15T12:15:33Z</time>
      </trkpt>
      <trkpt lat="42.867387" lon="0.878467">
        <ele>2011.2</ele>
        <time>2012-12-15T12:15:45Z</time>
      </trkpt>
      <trkpt lat="42.867374" lon="0.878348">
        <ele>2011.7</ele>
        <time>2012-12-15T12:15:57Z</time>
      </trkpt>
      <trkpt lat="42.867361" lon="0.878237">
        <ele>2013.1</ele>
        <time>2012-12-15T12:16:10Z</time>
      </trkpt>
      <trkpt lat="42.867346" lon="0.878103">
        <ele>2013.6</ele>
        <time>2012-12-15T12:16:23Z</time>
      </trkpt>
      <trkpt lat="42.867321" lon="0.877977">
        <ele>2015.1</ele>
        <time>2012-12-15T12:16:36Z</time>
      </trkpt>
      <trkpt lat="42.867313" lon="0.877849">
        <ele>2016.0</ele>
        <time>2012-12-15T12:16:50Z</time>
      </trkpt>
      <trkpt lat="42.867302" lon="0.877724">
        <ele>2016.5</ele>
        <time>2012-12-15T12:17:04Z</time>
      </trkpt>
      <trkpt lat="42.867307" lon="0.877600">
        <ele>2017.5</ele>
        <time>2012-12-15T12:17:19Z</time>
      </trkpt>
      <trkpt lat="42.867303" lon="0.877478">
        <ele>2018.4</ele>
        <time>2012-12-15T12:17:35Z</time>
      </trkpt>
      <trkpt lat="42.867294" lon="0.877342">
        <ele>2019.4</ele>
        <time>2012-12-15T12:17:49Z</time>
      </trkpt>
      <trkpt lat="42.867281" lon="0.877217">
        <ele>2019.9</ele>
        <time>2012-12-15T12:18:02Z</time>
      </trkpt>
      <trkpt lat="42.867277" lon="0.877082">
        <ele>2021.3</ele>
        <time>2012-12-15T12:18:16Z</time>
      </trkpt>
      <trkpt lat="42.867274" lon="0.876950">
        <ele>2021.8</ele>
        <time>2012-12-15T12:18:31Z</time>
      </trkpt>
      <trkpt lat="42.867275" lon="0.876825">
        <ele>2023.7</ele>
        <time>2012-12-15T12:18:48Z</time>
      </trkpt>
      <trkpt lat="42.867274" lon="0.876703">
        <ele>2025.2</ele>
        <time>2012-12-15T12:19:04Z</time>
      </trkpt>
      <trkpt lat="42.867267" lon="0.876583">
        <ele>2025.6</ele>
        <time>2012-12-15T12:19:19Z</time>
      </trkpt>
      <trkpt lat="42.867281" lon="0.876463">
        <ele>2026.6</ele>
        <time>2012-12-15T12:19:35Z</time>
      </trkpt>
      <trkpt lat="42.867298" lon="0.876345">
        <ele>2027.6</ele>
        <time>2012-12-15T12:19:58Z</time>
      </trkpt>
      <trkpt lat="42.867318" lon="0.876224">
        <ele>2028.5</ele>
        <time>2012-12-15T12:20:15Z</time>
      </trkpt>
      <trkpt lat="42.867332" lon="0.876092">
        <ele>2029.5</ele>
        <time>2012-12-15T12:20:30Z</time>
      </trkpt>
      <trkpt lat="42.867342" lon="0.875984">
        <ele>2030.0</ele>
        <time>2012-12-15T12:20:59Z</time>
      </trkpt>
      <trkpt lat="42.867354" lon="0.875860">
        <ele>2030.4</ele>
        <time>2012-12-15T12:21:23Z</time>
      </trkpt>
      <trkpt lat="42.867377" lon="0.875719">
        <ele>2032.4</ele>
        <time>2012-12-15T12:21:43Z</time>
      </trkpt>
      <trkpt lat="42.867384" lon="0.875598">
        <ele>2032.8</ele>
        <time>2012-12-15T12:22:00Z</time>
      </trkpt>
      <trkpt lat="42.867378" lon="0.875480">
        <ele>2035.2</ele>
        <time>2012-12-15T12:22:17Z</time>
      </trkpt>
      <trkpt lat="42.867363" lon="0.875371">
        <ele>2037.2</ele>
        <time>2012-12-15T12:22:34Z</time>
      </trkpt>
      <trkpt lat="42.867373" lon="0.875248">
        <ele>2038.1</ele>
        <time>2012-12-15T12:22:49Z</time>
      </trkpt>
      <trkpt lat="42.867386" lon="0.875136">
        <ele>2040.1</ele>
        <time>2012-12-15T12:23:02Z</time>
      </trkpt>
      <trkpt lat="42.867398" lon="0.875014">
        <ele>2042.0</ele>
        <time>2012-12-15T12:23:18Z</time>
      </trkpt>
      <trkpt lat="42.867397" lon="0.874904">
        <ele>2042.0</ele>
        <time>2012-12-15T12:23:30Z</time>
      </trkpt>
      <trkpt lat="42.867407" lon="0.874789">
        <ele>2042.5</ele>
        <time>2012-12-15T12:23:45Z</time>
      </trkpt>
      <trkpt lat="42.867410" lon="0.874675">
        <ele>2044.4</ele>
        <time>2012-12-15T12:24:05Z</time>
      </trkpt>
      <trkpt lat="42.867421" lon="0.874555">
        <ele>2046.8</ele>
        <time>2012-12-15T12:24:23Z</time>
      </trkpt>
      <trkpt lat="42.867431" lon="0.874398">
        <ele>2049.7</ele>
        <time>2012-12-15T12:24:54Z</time>
      </trkpt>
      <trkpt lat="42.867430" lon="0.874280">
        <ele>2052.1</ele>
        <time>2012-12-15T12:25:17Z</time>
      </trkpt>
      <trkpt lat="42.867407" lon="0.874170">
        <ele>2054.0</ele>
        <time>2012-12-15T12:25:40Z</time>
      </trkpt>
      <trkpt lat="42.867411" lon="0.874024">
        <ele>2056.4</ele>
        <time>2012-12-15T12:26:03Z</time>
      </trkpt>
      <trkpt lat="42.867397" lon="0.873912">
        <ele>2059.3</ele>
        <time>2012-12-15T12:26:20Z</time>
      </trkpt>
      <trkpt lat="42.867397" lon="0.873800">
        <ele>2060.2</ele>
        <time>2012-12-15T12:26:35Z</time>
      </trkpt>
      <trkpt lat="42.867438" lon="0.873691">
        <ele>2059.8</ele>
        <time>2012-12-15T12:26:50Z</time>
      </trkpt>
      <trkpt lat="42.867448" lon="0.873576">
        <ele>2059.8</ele>
        <time>2012-12-15T12:27:03Z</time>
      </trkpt>
      <trkpt lat="42.867438" lon="0.873445">
        <ele>2060.2</ele>
        <time>2012-12-15T12:27:20Z</time>
      </trkpt>
      <trkpt lat="42.867422" lon="0.873326">
        <ele>2061.7</ele>
        <time>2012-12-15T12:27:38Z</time>
      </trkpt>
      <trkpt lat="42.867409" lon="0.873218">
        <ele>2062.6</ele>
        <time>2012-12-15T12:27:56Z</time>
      </trkpt>
      <trkpt lat="42.867394" lon="0.873093">
        <ele>2064.6</ele>
        <time>2012-12-15T12:28:08Z</time>
      </trkpt>
      <trkpt lat="42.867395" lon="0.872969">
        <ele>2066.0</ele>
        <time>2012-12-15T12:28:18Z</time>
      </trkpt>
      <trkpt lat="42.867387" lon="0.872850">
        <ele>2066.5</ele>
        <time>2012-12-15T12:28:27Z</time>
      </trkpt>
      <trkpt lat="42.867386" lon="0.872719">
        <ele>2067.0</ele>
        <time>2012-12-15T12:28:37Z</time>
      </trkpt>
      <trkpt lat="42.867379" lon="0.872585">
        <ele>2067.0</ele>
        <time>2012-12-15T12:28:47Z</time>
      </trkpt>
      <trkpt lat="42.867360" lon="0.872455">
        <ele>2067.0</ele>
        <time>2012-12-15T12:28:57Z</time>
      </trkpt>
      <trkpt lat="42.867328" lon="0.872327">
        <ele>2067.4</ele>
        <time>2012-12-15T12:29:07Z</time>
      </trkpt>
      <trkpt lat="42.867301" lon="0.872197">
        <ele>2067.4</ele>
        <time>2012-12-15T12:29:17Z</time>
      </trkpt>
      <trkpt lat="42.867307" lon="0.872068">
        <ele>2068.4</ele>
        <time>2012-12-15T12:29:26Z</time>
      </trkpt>
      <trkpt lat="42.867293" lon="0.871931">
        <ele>2069.4</ele>
        <time>2012-12-15T12:29:36Z</time>
      </trkpt>
      <trkpt lat="42.867304" lon="0.871799">
        <ele>2069.9</ele>
        <time>2012-12-15T12:29:46Z</time>
      </trkpt>
      <trkpt lat="42.867316" lon="0.871674">
        <ele>2069.9</ele>
        <time>2012-12-15T12:29:57Z</time>
      </trkpt>
      <trkpt lat="42.867331" lon="0.871554">
        <ele>2071.8</ele>
        <time>2012-12-15T12:30:07Z</time>
      </trkpt>
      <trkpt lat="42.867361" lon="0.871430">
        <ele>2071.8</ele>
        <time>2012-12-15T12:30:16Z</time>
      </trkpt>
      <trkpt lat="42.867392" lon="0.871319">
        <ele>2072.3</ele>
        <time>2012-12-15T12:30:25Z</time>
      </trkpt>
      <trkpt lat="42.867386" lon="0.871192">
        <ele>2071.3</ele>
        <time>2012-12-15T12:30:35Z</time>
      </trkpt>
      <trkpt lat="42.867356" lon="0.871068">
        <ele>2069.4</ele>
        <time>2012-12-15T12:30:45Z</time>
      </trkpt>
      <trkpt lat="42.867318" lon="0.870941">
        <ele>2067.4</ele>
        <time>2012-12-15T12:30:54Z</time>
      </trkpt>
      <trkpt lat="42.867311" lon="0.870818">
        <ele>2067.0</ele>
        <time>2012-12-15T12:31:04Z</time>
      </trkpt>
      <trkpt lat="42.867310" lon="0.870687">
        <ele>2067.0</ele>
        <time>2012-12-15T12:31:13Z</time>
      </trkpt>
      <trkpt lat="42.867309" lon="0.870559">
        <ele>2066.5</ele>
        <time>2012-12-15T12:31:21Z</time>
      </trkpt>
      <trkpt lat="42.867334" lon="0.870442">
        <ele>2067.0</ele>
        <time>2012-12-15T12:31:31Z</time>
      </trkpt>
      <trkpt lat="42.867360" lon="0.870306">
        <ele>2067.0</ele>
        <time>2012-12-15T12:31:40Z</time>
      </trkpt>
      <trkpt lat="42.867376" lon="0.870173">
        <ele>2066.5</ele>
        <time>2012-12-15T12:31:49Z</time>
      </trkpt>
      <trkpt lat="42.867395" lon="0.870056">
        <ele>2066.5</ele>
        <time>2012-12-15T12:31:57Z</time>
      </trkpt>
      <trkpt lat="42.867391" lon="0.869922">
        <ele>2065.5</ele>
        <time>2012-12-15T12:32:07Z</time>
      </trkpt>
      <trkpt lat="42.867394" lon="0.869799">
        <ele>2064.1</ele>
        <time>2012-12-15T12:32:17Z</time>
      </trkpt>
      <trkpt lat="42.867400" lon="0.869660">
        <ele>2063.1</ele>
        <time>2012-12-15T12:32:27Z</time>
      </trkpt>
      <trkpt lat="42.867370" lon="0.869530">
        <ele>2061.2</ele>
        <time>2012-12-15T12:32:36Z</time>
      </trkpt>
      <trkpt lat="42.867350" lon="0.869399">
        <ele>2060.7</ele>
        <time>2012-12-15T12:32:45Z</time>
      </trkpt>
      <trkpt lat="42.867336" lon="0.869275">
        <ele>2060.2</ele>
        <time>2012-12-15T12:32:53Z</time>
      </trkpt>
      <trkpt lat="42.867339" lon="0.869145">
        <ele>2059.8</ele>
        <time>2012-12-15T12:33:03Z</time>
      </trkpt>
      <trkpt lat="42.867355" lon="0.869018">
        <ele>2059.8</ele>
        <time>2012-12-15T12:33:15Z</time>
      </trkpt>
      <trkpt lat="42.867336" lon="0.868889">
        <ele>2059.8</ele>
        <time>2012-12-15T12:33:28Z</time>
      </trkpt>
      <trkpt lat="42.867339" lon="0.868752">
        <ele>2060.2</ele>
        <time>2012-12-15T12:33:43Z</time>
      </trkpt>
      <trkpt lat="42.867353" lon="0.868630">
        <ele>2059.8</ele>
        <time>2012-12-15T12:33:56Z</time>
      </trkpt>
      <trkpt lat="42.867381" lon="0.868504">
        <ele>2059.8</ele>
        <time>2012-12-15T12:34:19Z</time>
      </trkpt>
      <trkpt lat="42.867399" lon="0.868362">
        <ele>2058.8</ele>
        <time>2012-12-15T12:34:37Z</time>
      </trkpt>
      <trkpt lat="42.867411" lon="0.868264">
        <ele>2057.8</ele>
        <time>2012-12-15T12:35:02Z</time>
      </trkpt>
      <trkpt lat="42.867457" lon="0.868152">
        <ele>2056.9</ele>
        <time>2012-12-15T12:35:16Z</time>
      </trkpt>
      <trkpt lat="42.867534" lon="0.868085">
        <ele>2055.9</ele>
        <time>2012-12-15T12:35:29Z</time>
      </trkpt>
      <trkpt lat="42.867498" lon="0.867995">
        <ele>2058.8</ele>
        <time>2012-12-15T12:35:47Z</time>
      </trkpt>
      <trkpt lat="42.867506" lon="0.867861">
        <ele>2060.7</ele>
        <time>2012-12-15T12:36:03Z</time>
      </trkpt>
      <trkpt lat="42.867539" lon="0.867735">
        <ele>2059.3</ele>
        <time>2012-12-15T12:36:15Z</time>
      </trkpt>
      <trkpt lat="42.867535" lon="0.867606">
        <ele>2059.8</ele>
        <time>2012-12-15T12:36:29Z</time>
      </trkpt>
      <trkpt lat="42.867528" lon="0.867481">
        <ele>2062.2</ele>
        <time>2012-12-15T12:36:45Z</time>
      </trkpt>
      <trkpt lat="42.867553" lon="0.867352">
        <ele>2062.2</ele>
        <time>2012-12-15T12:36:57Z</time>
      </trkpt>
      <trkpt lat="42.867535" lon="0.867236">
        <ele>2062.2</ele>
        <time>2012-12-15T12:37:08Z</time>
      </trkpt>
      <trkpt lat="42.867518" lon="0.867118">
        <ele>2062.2</ele>
        <time>2012-12-15T12:37:27Z</time>
      </trkpt>
      <trkpt lat="42.867557" lon="0.866987">
        <ele>2063.6</ele>
        <time>2012-12-15T12:37:40Z</time>
      </trkpt>
      <trkpt lat="42.867584" lon="0.866881">
        <ele>2062.2</ele>
        <time>2012-12-15T12:37:52Z</time>
      </trkpt>
      <trkpt lat="42.867577" lon="0.866765">
        <ele>2061.7</ele>
        <time>2012-12-15T12:38:17Z</time>
      </trkpt>
      <trkpt lat="42.867547" lon="0.866642">
        <ele>2061.7</ele>
        <time>2012-12-15T12:38:28Z</time>
      </trkpt>
      <trkpt lat="42.867534" lon="0.866522">
        <ele>2060.7</ele>
        <time>2012-12-15T12:38:37Z</time>
      </trkpt>
      <trkpt lat="42.867530" lon="0.866388">
        <ele>2059.8</ele>
        <time>2012-12-15T12:38:46Z</time>
      </trkpt>
      <trkpt lat="42.867541" lon="0.866272">
        <ele>2058.3</ele>
        <time>2012-12-15T12:38:56Z</time>
      </trkpt>
      <trkpt lat="42.867557" lon="0.866144">
        <ele>2057.8</ele>
        <time>2012-12-15T12:39:06Z</time>
      </trkpt>
      <trkpt lat="42.867575" lon="0.866021">
        <ele>2055.9</ele>
        <time>2012-12-15T12:39:17Z</time>
      </trkpt>
      <trkpt lat="42.867593" lon="0.865884">
        <ele>2055.4</ele>
        <time>2012-12-15T12:39:44Z</time>
      </trkpt>
      <trkpt lat="42.867615" lon="0.865763">
        <ele>2054.0</ele>
        <time>2012-12-15T12:39:55Z</time>
      </trkpt>
      <trkpt lat="42.867633" lon="0.865646">
        <ele>2053.0</ele>
        <time>2012-12-15T12:40:05Z</time>
      </trkpt>
      <trkpt lat="42.867637" lon="0.865527">
        <ele>2052.6</ele>
        <time>2012-12-15T12:40:15Z</time>
      </trkpt>
      <trkpt lat="42.867640" lon="0.865403">
        <ele>2050.6</ele>
        <time>2012-12-15T12:40:26Z</time>
      </trkpt>
      <trkpt lat="42.867635" lon="0.865281">
        <ele>2049.7</ele>
        <time>2012-12-15T12:40:53Z</time>
      </trkpt>
      <trkpt lat="42.867643" lon="0.865138">
        <ele>2049.2</ele>
        <time>2012-12-15T12:41:06Z</time>
      </trkpt>
      <trkpt lat="42.867661" lon="0.865019">
        <ele>2049.7</ele>
        <time>2012-12-15T12:41:18Z</time>
      </trkpt>
      <trkpt lat="42.867669" lon="0.864877">
        <ele>2049.7</ele>
        <time>2012-12-15T12:41:31Z</time>
      </trkpt>
      <trkpt lat="42.867681" lon="0.864742">
        <ele>2049.7</ele>
        <time>2012-12-15T12:41:44Z</time>
      </trkpt>
      <trkpt lat="42.867696" lon="0.864626">
        <ele>2049.7</ele>
        <time>2012-12-15T12:41:57Z</time>
      </trkpt>
      <trkpt lat="42.867711" lon="0.864505">
        <ele>2049.7</ele>
        <time>2012-12-15T12:42:10Z</time>
      </trkpt>
      <trkpt lat="42.867716" lon="0.864378">
        <ele>2050.1</ele>
        <time>2012-12-15T12:42:23Z</time>
      </trkpt>
      <trkpt lat="42.867727" lon="0.864265">
        <ele>2051.1</ele>
        <time>2012-12-15T12:42:36Z</time>
      </trkpt>
      <trkpt lat="42.867744" lon="0.864142">
        <ele>2052.1</ele>
        <time>2012-12-15T12:42:49Z</time>
      </trkpt>
      <trkpt lat="42.867737" lon="0.864014">
        <ele>2053.5</ele>
        <time>2012-12-15T12:43:05Z</time>
      </trkpt>
      <trkpt lat="42.867707" lon="0.863873">
        <ele>2053.5</ele>
        <time>2012-12-15T12:43:20Z</time>
      </trkpt>
      <trkpt lat="42.867694" lon="0.863739">
        <ele>2054.0</ele>
        <time>2012-12-15T12:43:35Z</time>
      </trkpt>
      <trkpt lat="42.867664" lon="0.863628">
        <ele>2055.9</ele>
        <time>2012-12-15T12:43:52Z</time>
      </trkpt>
      <trkpt lat="42.867655" lon="0.863502">
        <ele>2056.9</ele>
        <time>2012-12-15T12:44:07Z</time>
      </trkpt>
      <trkpt lat="42.867653" lon="0.863369">
        <ele>2059.3</ele>
        <time>2012-12-15T12:44:24Z</time>
      </trkpt>
      <trkpt lat="42.867672" lon="0.863240">
        <ele>2060.7</ele>
        <time>2012-12-15T12:44:40Z</time>
      </trkpt>
      <trkpt lat="42.867674" lon="0.863120">
        <ele>2061.7</ele>
        <time>2012-12-15T12:44:57Z</time>
      </trkpt>
      <trkpt lat="42.867669" lon="0.863006">
        <ele>2064.1</ele>
        <time>2012-12-15T12:45:14Z</time>
      </trkpt>
      <trkpt lat="42.867682" lon="0.862879">
        <ele>2066.0</ele>
        <time>2012-12-15T12:45:30Z</time>
      </trkpt>
      <trkpt lat="42.867678" lon="0.862752">
        <ele>2067.4</ele>
        <time>2012-12-15T12:45:46Z</time>
      </trkpt>
      <trkpt lat="42.867669" lon="0.862617">
        <ele>2068.9</ele>
        <time>2012-12-15T12:46:04Z</time>
      </trkpt>
      <trkpt lat="42.867676" lon="0.862494">
        <ele>2069.4</ele>
        <time>2012-12-15T12:46:19Z</time>
      </trkpt>
      <trkpt lat="42.867695" lon="0.862367">
        <ele>2069.9</ele>
        <time>2012-12-15T12:46:34Z</time>
      </trkpt>
      <trkpt lat="42.867714" lon="0.862250">
        <ele>2070.3</ele>
        <time>2012-12-15T12:46:50Z</time>
      </trkpt>
      <trkpt lat="42.867734" lon="0.862137">
        <ele>2072.3</ele>
        <time>2012-12-15T12:47:06Z</time>
      </trkpt>
      <trkpt lat="42.867770" lon="0.862000">
        <ele>2072.7</ele>
        <time>2012-12-15T12:47:22Z</time>
      </trkpt>
      <trkpt lat="42.867827" lon="0.861904">
        <ele>2073.7</ele>
        <time>2012-12-15T12:47:37Z</time>
      </trkpt>
      <trkpt lat="42.867890" lon="0.861814">
        <ele>2076.1</ele>
        <time>2012-12-15T12:47:53Z</time>
      </trkpt>
      <trkpt lat="42.867938" lon="0.861727">
        <ele>2077.1</ele>
        <time>2012-12-15T12:48:09Z</time>
      </trkpt>
      <trkpt lat="42.868003" lon="0.861656">
        <ele>2079.9</ele>
        <time>2012-12-15T12:48:28Z</time>
      </trkpt>
      <trkpt lat="42.868062" lon="0.861568">
        <ele>2083.3</ele>
        <time>2012-12-15T12:48:54Z</time>
      </trkpt>
      <trkpt lat="42.868131" lon="0.861494">
        <ele>2086.7</ele>
        <time>2012-12-15T12:49:24Z</time>
      </trkpt>
      <trkpt lat="42.868202" lon="0.861409">
        <ele>2090.0</ele>
        <time>2012-12-15T12:49:53Z</time>
      </trkpt>
      <trkpt lat="42.868271" lon="0.861331">
        <ele>2093.4</ele>
        <time>2012-12-15T12:50:25Z</time>
      </trkpt>
      <trkpt lat="42.868335" lon="0.861265">
        <ele>2097.7</ele>
        <time>2012-12-15T12:51:09Z</time>
      </trkpt>
      <trkpt lat="42.868385" lon="0.861182">
        <ele>2101.6</ele>
        <time>2012-12-15T12:51:45Z</time>
      </trkpt>
      <trkpt lat="42.868452" lon="0.861099">
        <ele>2105.9</ele>
        <time>2012-12-15T12:52:19Z</time>
      </trkpt>
      <trkpt lat="42.868520" lon="0.861026">
        <ele>2108.8</ele>
        <time>2012-12-15T12:52:46Z</time>
      </trkpt>
      <trkpt lat="42.868580" lon="0.860933">
        <ele>2113.1</ele>
        <time>2012-12-15T12:53:20Z</time>
      </trkpt>
      <trkpt lat="42.868658" lon="0.860869">
        <ele>2116.5</ele>
        <time>2012-12-15T12:54:22Z</time>
      </trkpt>
      <trkpt lat="42.868747" lon="0.860804">
        <ele>2120.3</ele>
        <time>2012-12-15T12:54:55Z</time>
      </trkpt>
      <trkpt lat="42.868820" lon="0.860726">
        <ele>2125.6</ele>
        <time>2012-12-15T12:55:27Z</time>
      </trkpt>
      <trkpt lat="42.868906" lon="0.860676">
        <ele>2130.9</ele>
        <time>2012-12-15T12:56:24Z</time>
      </trkpt>
      <trkpt lat="42.868971" lon="0.860583">
        <ele>2136.7</ele>
        <time>2012-12-15T12:57:14Z</time>
      </trkpt>
      <trkpt lat="42.869060" lon="0.860544">
        <ele>2141.9</ele>
        <time>2012-12-15T12:58:15Z</time>
      </trkpt>
      <trkpt lat="42.869110" lon="0.860472">
        <ele>2146.8</ele>
        <time>2012-12-15T12:58:44Z</time>
      </trkpt>
      <trkpt lat="42.869190" lon="0.860390">
        <ele>2152.5</ele>
        <time>2012-12-15T12:59:50Z</time>
      </trkpt>
      <trkpt lat="42.869276" lon="0.860333">
        <ele>2159.7</ele>
        <time>2012-12-15T13:00:20Z</time>
      </trkpt>
      <trkpt lat="42.869342" lon="0.860297">
        <ele>2164.6</ele>
        <time>2012-12-15T13:00:52Z</time>
      </trkpt>
      <trkpt lat="42.869401" lon="0.860239">
        <ele>2168.9</ele>
        <time>2012-12-15T13:01:44Z</time>
      </trkpt>
      <trkpt lat="42.869431" lon="0.860156">
        <ele>2174.6</ele>
        <time>2012-12-15T13:02:19Z</time>
      </trkpt>
      <trkpt lat="42.869463" lon="0.860088">
        <ele>2179.4</ele>
        <time>2012-12-15T13:02:52Z</time>
      </trkpt>
      <trkpt lat="42.869515" lon="0.860013">
        <ele>2182.8</ele>
        <time>2012-12-15T13:03:52Z</time>
      </trkpt>
      <trkpt lat="42.869537" lon="0.859976">
        <ele>2186.7</ele>
        <time>2012-12-15T13:04:22Z</time>
      </trkpt>
      <trkpt lat="42.869541" lon="0.859898">
        <ele>2189.5</ele>
        <time>2012-12-15T13:04:58Z</time>
      </trkpt>
      <trkpt lat="42.869616" lon="0.859861">
        <ele>2197.7</ele>
        <time>2012-12-15T13:05:43Z</time>
      </trkpt>
      <trkpt lat="42.869663" lon="0.859785">
        <ele>2202.0</ele>
        <time>2012-12-15T13:06:17Z</time>
      </trkpt>
      <trkpt lat="42.869678" lon="0.859680">
        <ele>2205.4</ele>
        <time>2012-12-15T13:06:46Z</time>
      </trkpt>
      <trkpt lat="42.869669" lon="0.859519">
        <ele>2210.2</ele>
        <time>2012-12-15T13:07:26Z</time>
        <name>Pic de la Calabasse</name>
      </trkpt>
      <trkpt lat="42.869654" lon="0.859405">
        <ele>2212.1</ele>
        <time>2012-12-15T13:07:41Z</time>
      </trkpt>
      <trkpt lat="42.869664" lon="0.859377">
        <ele>2210.2</ele>
        <time>2012-12-15T13:09:20Z</time>
      </trkpt>
      <trkpt lat="42.869664" lon="0.859366">
        <ele>2208.3</ele>
        <time>2012-12-15T13:23:14Z</time>
      </trkpt>
      <trkpt lat="42.869689" lon="0.859500">
        <ele>2210.7</ele>
        <time>2012-12-15T13:23:36Z</time>
      </trkpt>
      <trkpt lat="42.869754" lon="0.859548">
        <ele>2209.7</ele>
        <time>2012-12-15T13:24:04Z</time>
      </trkpt>
      <trkpt lat="42.869837" lon="0.859595">
        <ele>2208.8</ele>
        <time>2012-12-15T13:24:19Z</time>
      </trkpt>
      <trkpt lat="42.869928" lon="0.859674">
        <ele>2206.4</ele>
        <time>2012-12-15T13:24:28Z</time>
      </trkpt>
      <trkpt lat="42.869983" lon="0.859692">
        <ele>2201.6</ele>
        <time>2012-12-15T13:24:46Z</time>
      </trkpt>
      <trkpt lat="42.870087" lon="0.859759">
        <ele>2201.6</ele>
        <time>2012-12-15T13:25:04Z</time>
      </trkpt>
      <trkpt lat="42.870116" lon="0.859751">
        <ele>2201.6</ele>
        <time>2012-12-15T13:57:29Z</time>
      </trkpt>
      <trkpt lat="42.870156" lon="0.859760">
        <ele>2201.1</ele>
        <time>2012-12-15T13:58:22Z</time>
      </trkpt>
      <trkpt lat="42.870182" lon="0.859764">
        <ele>2200.6</ele>
        <time>2012-12-15T13:58:59Z</time>
      </trkpt>
      <trkpt lat="42.870275" lon="0.859793">
        <ele>2196.8</ele>
        <time>2012-12-15T13:59:11Z</time>
      </trkpt>
      <trkpt lat="42.870367" lon="0.859809">
        <ele>2191.9</ele>
        <time>2012-12-15T13:59:20Z</time>
      </trkpt>
      <trkpt lat="42.870451" lon="0.859811">
        <ele>2187.6</ele>
        <time>2012-12-15T13:59:33Z</time>
      </trkpt>
      <trkpt lat="42.870528" lon="0.859794">
        <ele>2184.2</ele>
        <time>2012-12-15T13:59:44Z</time>
      </trkpt>
      <trkpt lat="42.870622" lon="0.859801">
        <ele>2179.9</ele>
        <time>2012-12-15T14:01:02Z</time>
      </trkpt>
      <trkpt lat="42.870693" lon="0.859841">
        <ele>2174.6</ele>
        <time>2012-12-15T14:01:35Z</time>
      </trkpt>
      <trkpt lat="42.870732" lon="0.859756">
        <ele>2167.9</ele>
        <time>2012-12-15T14:02:08Z</time>
      </trkpt>
      <trkpt lat="42.870807" lon="0.859809">
        <ele>2164.1</ele>
        <time>2012-12-15T14:02:26Z</time>
      </trkpt>
      <trkpt lat="42.870895" lon="0.859841">
        <ele>2159.7</ele>
        <time>2012-12-15T14:02:40Z</time>
      </trkpt>
      <trkpt lat="42.870975" lon="0.859875">
        <ele>2154.4</ele>
        <time>2012-12-15T14:02:54Z</time>
      </trkpt>
      <trkpt lat="42.871056" lon="0.859917">
        <ele>2149.6</ele>
        <time>2012-12-15T14:03:08Z</time>
      </trkpt>
      <trkpt lat="42.871128" lon="0.859923">
        <ele>2143.9</ele>
        <time>2012-12-15T14:03:21Z</time>
      </trkpt>
      <trkpt lat="42.871198" lon="0.859896">
        <ele>2139.1</ele>
        <time>2012-12-15T14:03:35Z</time>
      </trkpt>
      <trkpt lat="42.871257" lon="0.859845">
        <ele>2135.2</ele>
        <time>2012-12-15T14:03:52Z</time>
      </trkpt>
      <trkpt lat="42.871338" lon="0.859861">
        <ele>2129.5</ele>
        <time>2012-12-15T14:04:14Z</time>
      </trkpt>
      <trkpt lat="42.871418" lon="0.859898">
        <ele>2124.2</ele>
        <time>2012-12-15T14:04:31Z</time>
      </trkpt>
      <trkpt lat="42.871504" lon="0.859964">
        <ele>2121.3</ele>
        <time>2012-12-15T14:04:44Z</time>
      </trkpt>
      <trkpt lat="42.871610" lon="0.859984">
        <ele>2116.0</ele>
        <time>2012-12-15T14:04:59Z</time>
      </trkpt>
      <trkpt lat="42.871678" lon="0.859911">
        <ele>2111.2</ele>
        <time>2012-12-15T14:05:10Z</time>
      </trkpt>
      <trkpt lat="42.871759" lon="0.859874">
        <ele>2109.8</ele>
        <time>2012-12-15T14:05:29Z</time>
      </trkpt>
      <trkpt lat="42.871797" lon="0.859911">
        <ele>2107.4</ele>
        <time>2012-12-15T14:06:08Z</time>
      </trkpt>
      <trkpt lat="42.871851" lon="0.859885">
        <ele>2104.9</ele>
        <time>2012-12-15T14:06:44Z</time>
      </trkpt>
      <trkpt lat="42.871911" lon="0.859904">
        <ele>2104.5</ele>
        <time>2012-12-15T14:08:25Z</time>
      </trkpt>
      <trkpt lat="42.871989" lon="0.859899">
        <ele>2099.2</ele>
        <time>2012-12-15T14:08:35Z</time>
      </trkpt>
      <trkpt lat="42.872069" lon="0.859931">
        <ele>2095.3</ele>
        <time>2012-12-15T14:08:47Z</time>
      </trkpt>
      <trkpt lat="42.872137" lon="0.859878">
        <ele>2092.4</ele>
        <time>2012-12-15T14:08:57Z</time>
      </trkpt>
      <trkpt lat="42.872207" lon="0.859805">
        <ele>2092.9</ele>
        <time>2012-12-15T14:09:10Z</time>
      </trkpt>
      <trkpt lat="42.872259" lon="0.859912">
        <ele>2089.6</ele>
        <time>2012-12-15T14:09:23Z</time>
      </trkpt>
      <trkpt lat="42.872344" lon="0.859963">
        <ele>2084.8</ele>
        <time>2012-12-15T14:09:39Z</time>
      </trkpt>
      <trkpt lat="42.872436" lon="0.859965">
        <ele>2080.9</ele>
        <time>2012-12-15T14:09:52Z</time>
      </trkpt>
      <trkpt lat="42.872521" lon="0.859922">
        <ele>2079.0</ele>
        <time>2012-12-15T14:10:03Z</time>
      </trkpt>
      <trkpt lat="42.872610" lon="0.859878">
        <ele>2077.6</ele>
        <time>2012-12-15T14:10:15Z</time>
      </trkpt>
      <trkpt lat="42.872697" lon="0.859878">
        <ele>2073.7</ele>
        <time>2012-12-15T14:11:15Z</time>
      </trkpt>
      <trkpt lat="42.872779" lon="0.859885">
        <ele>2070.3</ele>
        <time>2012-12-15T14:11:35Z</time>
      </trkpt>
      <trkpt lat="42.872879" lon="0.859884">
        <ele>2065.5</ele>
        <time>2012-12-15T14:11:49Z</time>
      </trkpt>
      <trkpt lat="42.872968" lon="0.859895">
        <ele>2060.7</ele>
        <time>2012-12-15T14:11:59Z</time>
      </trkpt>
      <trkpt lat="42.873063" lon="0.859897">
        <ele>2055.0</ele>
        <time>2012-12-15T14:12:07Z</time>
      </trkpt>
      <trkpt lat="42.873160" lon="0.859911">
        <ele>2049.2</ele>
        <time>2012-12-15T14:12:16Z</time>
      </trkpt>
      <trkpt lat="42.873249" lon="0.859898">
        <ele>2043.9</ele>
        <time>2012-12-15T14:12:24Z</time>
      </trkpt>
      <trkpt lat="42.873337" lon="0.859884">
        <ele>2041.5</ele>
        <time>2012-12-15T14:12:32Z</time>
      </trkpt>
      <trkpt lat="42.873422" lon="0.859861">
        <ele>2037.7</ele>
        <time>2012-12-15T14:12:43Z</time>
      </trkpt>
      <trkpt lat="42.873514" lon="0.859827">
        <ele>2033.3</ele>
        <time>2012-12-15T14:12:55Z</time>
      </trkpt>
      <trkpt lat="42.873611" lon="0.859829">
        <ele>2027.6</ele>
        <time>2012-12-15T14:13:04Z</time>
      </trkpt>
      <trkpt lat="42.873703" lon="0.859819">
        <ele>2022.3</ele>
        <time>2012-12-15T14:13:13Z</time>
      </trkpt>
      <trkpt lat="42.873795" lon="0.859814">
        <ele>2017.0</ele>
        <time>2012-12-15T14:13:23Z</time>
      </trkpt>
      <trkpt lat="42.873888" lon="0.859832">
        <ele>2012.7</ele>
        <time>2012-12-15T14:13:32Z</time>
      </trkpt>
      <trkpt lat="42.873986" lon="0.859837">
        <ele>2006.4</ele>
        <time>2012-12-15T14:13:45Z</time>
      </trkpt>
      <trkpt lat="42.874069" lon="0.859874">
        <ele>2002.1</ele>
        <time>2012-12-15T14:13:56Z</time>
      </trkpt>
      <trkpt lat="42.874166" lon="0.859884">
        <ele>1997.3</ele>
        <time>2012-12-15T14:14:06Z</time>
      </trkpt>
      <trkpt lat="42.874261" lon="0.859897">
        <ele>1992.0</ele>
        <time>2012-12-15T14:14:16Z</time>
      </trkpt>
      <trkpt lat="42.874349" lon="0.859918">
        <ele>1987.7</ele>
        <time>2012-12-15T14:14:32Z</time>
      </trkpt>
      <trkpt lat="42.874442" lon="0.859891">
        <ele>1984.8</ele>
        <time>2012-12-15T14:14:45Z</time>
      </trkpt>
      <trkpt lat="42.874534" lon="0.859859">
        <ele>1982.9</ele>
        <time>2012-12-15T14:15:02Z</time>
      </trkpt>
      <trkpt lat="42.874609" lon="0.859864">
        <ele>1980.4</ele>
        <time>2012-12-15T14:15:47Z</time>
      </trkpt>
      <trkpt lat="42.874679" lon="0.859904">
        <ele>1978.5</ele>
        <time>2012-12-15T14:16:42Z</time>
      </trkpt>
      <trkpt lat="42.874772" lon="0.859937">
        <ele>1974.7</ele>
        <time>2012-12-15T14:16:55Z</time>
      </trkpt>
      <trkpt lat="42.874857" lon="0.859987">
        <ele>1971.3</ele>
        <time>2012-12-15T14:17:05Z</time>
      </trkpt>
      <trkpt lat="42.874934" lon="0.860060">
        <ele>1966.0</ele>
        <time>2012-12-15T14:17:17Z</time>
      </trkpt>
      <trkpt lat="42.875009" lon="0.860133">
        <ele>1961.7</ele>
        <time>2012-12-15T14:17:27Z</time>
      </trkpt>
      <trkpt lat="42.875089" lon="0.860202">
        <ele>1956.4</ele>
        <time>2012-12-15T14:17:38Z</time>
      </trkpt>
      <trkpt lat="42.875176" lon="0.860238">
        <ele>1951.6</ele>
        <time>2012-12-15T14:17:49Z</time>
      </trkpt>
      <trkpt lat="42.875270" lon="0.860259">
        <ele>1947.3</ele>
        <time>2012-12-15T14:18:02Z</time>
      </trkpt>
      <trkpt lat="42.875355" lon="0.860304">
        <ele>1942.0</ele>
        <time>2012-12-15T14:18:15Z</time>
      </trkpt>
      <trkpt lat="42.875446" lon="0.860327">
        <ele>1937.7</ele>
        <time>2012-12-15T14:18:27Z</time>
      </trkpt>
      <trkpt lat="42.875532" lon="0.860374">
        <ele>1932.4</ele>
        <time>2012-12-15T14:18:44Z</time>
      </trkpt>
      <trkpt lat="42.875622" lon="0.860380">
        <ele>1929.0</ele>
        <time>2012-12-15T14:18:55Z</time>
      </trkpt>
      <trkpt lat="42.875724" lon="0.860374">
        <ele>1926.6</ele>
        <time>2012-12-15T14:19:07Z</time>
      </trkpt>
      <trkpt lat="42.875807" lon="0.860398">
        <ele>1923.7</ele>
        <time>2012-12-15T14:19:17Z</time>
      </trkpt>
      <trkpt lat="42.875897" lon="0.860444">
        <ele>1920.8</ele>
        <time>2012-12-15T14:19:28Z</time>
      </trkpt>
      <trkpt lat="42.875943" lon="0.860551">
        <ele>1919.4</ele>
        <time>2012-12-15T14:19:40Z</time>
      </trkpt>
      <trkpt lat="42.875997" lon="0.860610">
        <ele>1916.5</ele>
        <time>2012-12-15T14:20:38Z</time>
      </trkpt>
      <trkpt lat="42.876056" lon="0.860699">
        <ele>1913.2</ele>
        <time>2012-12-15T14:20:49Z</time>
      </trkpt>
      <trkpt lat="42.876120" lon="0.860779">
        <ele>1909.8</ele>
        <time>2012-12-15T14:21:00Z</time>
      </trkpt>
      <trkpt lat="42.876198" lon="0.860825">
        <ele>1907.4</ele>
        <time>2012-12-15T14:21:10Z</time>
      </trkpt>
      <trkpt lat="42.876279" lon="0.860865">
        <ele>1904.0</ele>
        <time>2012-12-15T14:21:24Z</time>
      </trkpt>
      <trkpt lat="42.876368" lon="0.860869">
        <ele>1901.1</ele>
        <time>2012-12-15T14:21:33Z</time>
      </trkpt>
      <trkpt lat="42.876458" lon="0.860917">
        <ele>1898.3</ele>
        <time>2012-12-15T14:21:42Z</time>
      </trkpt>
      <trkpt lat="42.876532" lon="0.860994">
        <ele>1894.4</ele>
        <time>2012-12-15T14:21:53Z</time>
      </trkpt>
      <trkpt lat="42.876605" lon="0.861061">
        <ele>1889.6</ele>
        <time>2012-12-15T14:22:05Z</time>
      </trkpt>
      <trkpt lat="42.876676" lon="0.861125">
        <ele>1884.8</ele>
        <time>2012-12-15T14:22:17Z</time>
      </trkpt>
      <trkpt lat="42.876717" lon="0.861239">
        <ele>1881.4</ele>
        <time>2012-12-15T14:22:29Z</time>
      </trkpt>
      <trkpt lat="42.876779" lon="0.861322">
        <ele>1876.6</ele>
        <time>2012-12-15T14:22:45Z</time>
      </trkpt>
      <trkpt lat="42.876841" lon="0.861400">
        <ele>1873.3</ele>
        <time>2012-12-15T14:22:58Z</time>
      </trkpt>
      <trkpt lat="42.876930" lon="0.861451">
        <ele>1868.5</ele>
        <time>2012-12-15T14:23:11Z</time>
      </trkpt>
      <trkpt lat="42.876997" lon="0.861540">
        <ele>1864.6</ele>
        <time>2012-12-15T14:23:24Z</time>
      </trkpt>
      <trkpt lat="42.877073" lon="0.861610">
        <ele>1861.2</ele>
        <time>2012-12-15T14:23:37Z</time>
      </trkpt>
      <trkpt lat="42.877166" lon="0.861654">
        <ele>1856.4</ele>
        <time>2012-12-15T14:23:51Z</time>
      </trkpt>
      <trkpt lat="42.877250" lon="0.861676">
        <ele>1851.6</ele>
        <time>2012-12-15T14:24:05Z</time>
      </trkpt>
      <trkpt lat="42.877333" lon="0.861694">
        <ele>1847.8</ele>
        <time>2012-12-15T14:24:19Z</time>
      </trkpt>
      <trkpt lat="42.877418" lon="0.861757">
        <ele>1843.9</ele>
        <time>2012-12-15T14:24:33Z</time>
      </trkpt>
      <trkpt lat="42.877493" lon="0.861814">
        <ele>1838.2</ele>
        <time>2012-12-15T14:24:46Z</time>
      </trkpt>
      <trkpt lat="42.877550" lon="0.861885">
        <ele>1834.3</ele>
        <time>2012-12-15T14:24:58Z</time>
      </trkpt>
      <trkpt lat="42.877627" lon="0.861974">
        <ele>1828.1</ele>
        <time>2012-12-15T14:25:13Z</time>
      </trkpt>
      <trkpt lat="42.877697" lon="0.862053">
        <ele>1823.3</ele>
        <time>2012-12-15T14:25:25Z</time>
      </trkpt>
      <trkpt lat="42.877782" lon="0.862118">
        <ele>1817.5</ele>
        <time>2012-12-15T14:25:38Z</time>
      </trkpt>
      <trkpt lat="42.877865" lon="0.862163">
        <ele>1812.7</ele>
        <time>2012-12-15T14:25:53Z</time>
      </trkpt>
      <trkpt lat="42.877948" lon="0.862218">
        <ele>1807.9</ele>
        <time>2012-12-15T14:26:09Z</time>
      </trkpt>
      <trkpt lat="42.878028" lon="0.862278">
        <ele>1802.1</ele>
        <time>2012-12-15T14:26:25Z</time>
      </trkpt>
      <trkpt lat="42.878101" lon="0.862341">
        <ele>1797.3</ele>
        <time>2012-12-15T14:26:42Z</time>
      </trkpt>
      <trkpt lat="42.878178" lon="0.862393">
        <ele>1792.0</ele>
        <time>2012-12-15T14:27:00Z</time>
      </trkpt>
      <trkpt lat="42.878257" lon="0.862384">
        <ele>1787.7</ele>
        <time>2012-12-15T14:27:15Z</time>
      </trkpt>
      <trkpt lat="42.878336" lon="0.862373">
        <ele>1782.9</ele>
        <time>2012-12-15T14:28:32Z</time>
      </trkpt>
      <trkpt lat="42.878350" lon="0.862370">
        <ele>1782.9</ele>
        <time>2012-12-15T14:32:36Z</time>
      </trkpt>
      <trkpt lat="42.878349" lon="0.862394">
        <ele>1782.4</ele>
        <time>2012-12-15T14:34:30Z</time>
      </trkpt>
      <trkpt lat="42.878431" lon="0.862422">
        <ele>1779.1</ele>
        <time>2012-12-15T14:34:49Z</time>
      </trkpt>
      <trkpt lat="42.878523" lon="0.862425">
        <ele>1774.2</ele>
        <time>2012-12-15T14:35:02Z</time>
      </trkpt>
      <trkpt lat="42.878614" lon="0.862453">
        <ele>1769.9</ele>
        <time>2012-12-15T14:35:13Z</time>
      </trkpt>
      <trkpt lat="42.878695" lon="0.862404">
        <ele>1766.1</ele>
        <time>2012-12-15T14:35:25Z</time>
      </trkpt>
      <trkpt lat="42.878760" lon="0.862468">
        <ele>1761.8</ele>
        <time>2012-12-15T14:35:41Z</time>
      </trkpt>
      <trkpt lat="42.878845" lon="0.862493">
        <ele>1757.4</ele>
        <time>2012-12-15T14:35:56Z</time>
      </trkpt>
      <trkpt lat="42.878857" lon="0.862599">
        <ele>1754.5</ele>
        <time>2012-12-15T14:36:09Z</time>
      </trkpt>
      <trkpt lat="42.878965" lon="0.862615">
        <ele>1750.2</ele>
        <time>2012-12-15T14:37:16Z</time>
      </trkpt>
      <trkpt lat="42.879049" lon="0.862606">
        <ele>1746.4</ele>
        <time>2012-12-15T14:37:34Z</time>
      </trkpt>
      <trkpt lat="42.879135" lon="0.862652">
        <ele>1741.6</ele>
        <time>2012-12-15T14:37:49Z</time>
      </trkpt>
      <trkpt lat="42.879219" lon="0.862721">
        <ele>1737.7</ele>
        <time>2012-12-15T14:38:04Z</time>
      </trkpt>
      <trkpt lat="42.879309" lon="0.862747">
        <ele>1733.4</ele>
        <time>2012-12-15T14:38:16Z</time>
      </trkpt>
      <trkpt lat="42.879393" lon="0.862740">
        <ele>1728.6</ele>
        <time>2012-12-15T14:38:27Z</time>
      </trkpt>
      <trkpt lat="42.879482" lon="0.862762">
        <ele>1724.3</ele>
        <time>2012-12-15T14:38:44Z</time>
      </trkpt>
      <trkpt lat="42.879584" lon="0.862796">
        <ele>1719.0</ele>
        <time>2012-12-15T14:39:01Z</time>
      </trkpt>
      <trkpt lat="42.879659" lon="0.862844">
        <ele>1715.6</ele>
        <time>2012-12-15T14:39:14Z</time>
      </trkpt>
      <trkpt lat="42.879749" lon="0.862914">
        <ele>1710.8</ele>
        <time>2012-12-15T14:39:30Z</time>
      </trkpt>
      <trkpt lat="42.879842" lon="0.862992">
        <ele>1707.9</ele>
        <time>2012-12-15T14:39:45Z</time>
      </trkpt>
      <trkpt lat="42.879922" lon="0.863077">
        <ele>1704.1</ele>
        <time>2012-12-15T14:40:01Z</time>
      </trkpt>
      <trkpt lat="42.880015" lon="0.863149">
        <ele>1700.2</ele>
        <time>2012-12-15T14:40:16Z</time>
      </trkpt>
      <trkpt lat="42.880086" lon="0.863226">
        <ele>1697.8</ele>
        <time>2012-12-15T14:40:29Z</time>
      </trkpt>
      <trkpt lat="42.880160" lon="0.863293">
        <ele>1694.9</ele>
        <time>2012-12-15T14:40:41Z</time>
      </trkpt>
      <trkpt lat="42.880229" lon="0.863342">
        <ele>1691.1</ele>
        <time>2012-12-15T14:40:55Z</time>
      </trkpt>
      <trkpt lat="42.880304" lon="0.863412">
        <ele>1689.2</ele>
        <time>2012-12-15T14:41:09Z</time>
      </trkpt>
      <trkpt lat="42.880384" lon="0.863452">
        <ele>1685.3</ele>
        <time>2012-12-15T14:41:35Z</time>
      </trkpt>
      <trkpt lat="42.880463" lon="0.863538">
        <ele>1682.0</ele>
        <time>2012-12-15T14:41:47Z</time>
      </trkpt>
      <trkpt lat="42.880538" lon="0.863610">
        <ele>1679.1</ele>
        <time>2012-12-15T14:41:58Z</time>
      </trkpt>
      <trkpt lat="42.880610" lon="0.863684">
        <ele>1675.7</ele>
        <time>2012-12-15T14:42:22Z</time>
      </trkpt>
      <trkpt lat="42.880699" lon="0.863748">
        <ele>1671.9</ele>
        <time>2012-12-15T14:42:38Z</time>
      </trkpt>
      <trkpt lat="42.880775" lon="0.863812">
        <ele>1667.5</ele>
        <time>2012-12-15T14:42:50Z</time>
      </trkpt>
      <trkpt lat="42.880826" lon="0.863885">
        <ele>1663.7</ele>
        <time>2012-12-15T14:43:01Z</time>
      </trkpt>
      <trkpt lat="42.880885" lon="0.863985">
        <ele>1659.8</ele>
        <time>2012-12-15T14:43:14Z</time>
      </trkpt>
      <trkpt lat="42.880941" lon="0.864037">
        <ele>1657.4</ele>
        <time>2012-12-15T14:44:02Z</time>
      </trkpt>
      <trkpt lat="42.881001" lon="0.864082">
        <ele>1653.1</ele>
        <time>2012-12-15T14:44:14Z</time>
      </trkpt>
      <trkpt lat="42.881067" lon="0.864166">
        <ele>1649.8</ele>
        <time>2012-12-15T14:44:26Z</time>
      </trkpt>
      <trkpt lat="42.881155" lon="0.864198">
        <ele>1645.4</ele>
        <time>2012-12-15T14:44:36Z</time>
      </trkpt>
      <trkpt lat="42.881250" lon="0.864233">
        <ele>1641.1</ele>
        <time>2012-12-15T14:44:46Z</time>
      </trkpt>
      <trkpt lat="42.881326" lon="0.864281">
        <ele>1636.8</ele>
        <time>2012-12-15T14:44:57Z</time>
      </trkpt>
      <trkpt lat="42.881414" lon="0.864361">
        <ele>1632.5</ele>
        <time>2012-12-15T14:45:11Z</time>
      </trkpt>
      <trkpt lat="42.881505" lon="0.864424">
        <ele>1629.6</ele>
        <time>2012-12-15T14:45:27Z</time>
      </trkpt>
      <trkpt lat="42.881581" lon="0.864434">
        <ele>1625.7</ele>
        <time>2012-12-15T14:45:38Z</time>
      </trkpt>
      <trkpt lat="42.881653" lon="0.864503">
        <ele>1623.3</ele>
        <time>2012-12-15T14:45:53Z</time>
      </trkpt>
      <trkpt lat="42.881754" lon="0.864568">
        <ele>1618.5</ele>
        <time>2012-12-15T14:46:06Z</time>
      </trkpt>
      <trkpt lat="42.881839" lon="0.864595">
        <ele>1616.1</ele>
        <time>2012-12-15T14:46:19Z</time>
      </trkpt>
      <trkpt lat="42.881935" lon="0.864641">
        <ele>1613.2</ele>
        <time>2012-12-15T14:46:32Z</time>
      </trkpt>
      <trkpt lat="42.882020" lon="0.864676">
        <ele>1610.8</ele>
        <time>2012-12-15T14:46:54Z</time>
      </trkpt>
      <trkpt lat="42.882103" lon="0.864744">
        <ele>1608.9</ele>
        <time>2012-12-15T14:47:08Z</time>
      </trkpt>
      <trkpt lat="42.882159" lon="0.864724">
        <ele>1607.0</ele>
        <time>2012-12-15T14:50:23Z</time>
      </trkpt>
      <trkpt lat="42.882239" lon="0.864812">
        <ele>1605.1</ele>
        <time>2012-12-15T14:50:55Z</time>
        <name>Col Herbe Soulette</name>
      </trkpt>
      <trkpt lat="42.882293" lon="0.864898">
        <ele>1602.7</ele>
        <time>2012-12-15T14:51:10Z</time>
      </trkpt>
      <trkpt lat="42.882370" lon="0.864978">
        <ele>1601.2</ele>
        <time>2012-12-15T14:51:36Z</time>
      </trkpt>
      <trkpt lat="42.882421" lon="0.865086">
        <ele>1599.3</ele>
        <time>2012-12-15T14:51:48Z</time>
      </trkpt>
      <trkpt lat="42.882463" lon="0.865208">
        <ele>1596.9</ele>
        <time>2012-12-15T14:51:58Z</time>
      </trkpt>
      <trkpt lat="42.882507" lon="0.865317">
        <ele>1595.0</ele>
        <time>2012-12-15T14:52:08Z</time>
      </trkpt>
      <trkpt lat="42.882551" lon="0.865400">
        <ele>1593.5</ele>
        <time>2012-12-15T14:52:17Z</time>
      </trkpt>
      <trkpt lat="42.882593" lon="0.865523">
        <ele>1591.1</ele>
        <time>2012-12-15T14:52:26Z</time>
      </trkpt>
      <trkpt lat="42.882671" lon="0.865600">
        <ele>1588.7</ele>
        <time>2012-12-15T14:53:08Z</time>
      </trkpt>
      <trkpt lat="42.882690" lon="0.865684">
        <ele>1586.3</ele>
        <time>2012-12-15T14:53:18Z</time>
      </trkpt>
      <trkpt lat="42.882757" lon="0.865806">
        <ele>1584.4</ele>
        <time>2012-12-15T14:53:31Z</time>
      </trkpt>
      <trkpt lat="42.882814" lon="0.865907">
        <ele>1582.0</ele>
        <time>2012-12-15T14:53:42Z</time>
      </trkpt>
      <trkpt lat="42.882854" lon="0.866004">
        <ele>1578.6</ele>
        <time>2012-12-15T14:53:52Z</time>
      </trkpt>
      <trkpt lat="42.882920" lon="0.866100">
        <ele>1576.2</ele>
        <time>2012-12-15T14:54:33Z</time>
      </trkpt>
      <trkpt lat="42.882902" lon="0.866225">
        <ele>1572.4</ele>
        <time>2012-12-15T14:54:44Z</time>
      </trkpt>
      <trkpt lat="42.882900" lon="0.866340">
        <ele>1568.1</ele>
        <time>2012-12-15T14:54:55Z</time>
      </trkpt>
      <trkpt lat="42.882882" lon="0.866460">
        <ele>1561.8</ele>
        <time>2012-12-15T14:55:06Z</time>
      </trkpt>
      <trkpt lat="42.882884" lon="0.866583">
        <ele>1557.5</ele>
        <time>2012-12-15T14:55:18Z</time>
      </trkpt>
      <trkpt lat="42.882859" lon="0.866692">
        <ele>1555.1</ele>
        <time>2012-12-15T14:55:29Z</time>
      </trkpt>
      <trkpt lat="42.882825" lon="0.866816">
        <ele>1551.7</ele>
        <time>2012-12-15T14:55:40Z</time>
      </trkpt>
      <trkpt lat="42.882774" lon="0.866915">
        <ele>1549.8</ele>
        <time>2012-12-15T14:55:51Z</time>
      </trkpt>
      <trkpt lat="42.882716" lon="0.867007">
        <ele>1548.3</ele>
        <time>2012-12-15T14:56:02Z</time>
      </trkpt>
      <trkpt lat="42.882662" lon="0.867101">
        <ele>1544.5</ele>
        <time>2012-12-15T14:56:15Z</time>
      </trkpt>
      <trkpt lat="42.882605" lon="0.867136">
        <ele>1543.1</ele>
        <time>2012-12-15T14:57:17Z</time>
      </trkpt>
      <trkpt lat="42.882541" lon="0.867231">
        <ele>1540.2</ele>
        <time>2012-12-15T14:57:28Z</time>
      </trkpt>
      <trkpt lat="42.882481" lon="0.867345">
        <ele>1537.8</ele>
        <time>2012-12-15T14:57:45Z</time>
      </trkpt>
      <trkpt lat="42.882452" lon="0.867457">
        <ele>1536.8</ele>
        <time>2012-12-15T14:57:57Z</time>
      </trkpt>
      <trkpt lat="42.882394" lon="0.867563">
        <ele>1534.9</ele>
        <time>2012-12-15T14:58:10Z</time>
      </trkpt>
      <trkpt lat="42.882355" lon="0.867661">
        <ele>1529.6</ele>
        <time>2012-12-15T14:58:23Z</time>
      </trkpt>
      <trkpt lat="42.882355" lon="0.867772">
        <ele>1526.7</ele>
        <time>2012-12-15T14:58:36Z</time>
      </trkpt>
      <trkpt lat="42.882373" lon="0.867923">
        <ele>1526.2</ele>
        <time>2012-12-15T14:58:50Z</time>
      </trkpt>
      <trkpt lat="42.882387" lon="0.868049">
        <ele>1525.3</ele>
        <time>2012-12-15T14:59:02Z</time>
      </trkpt>
      <trkpt lat="42.882384" lon="0.868180">
        <ele>1523.3</ele>
        <time>2012-12-15T14:59:12Z</time>
      </trkpt>
      <trkpt lat="42.882349" lon="0.868298">
        <ele>1522.9</ele>
        <time>2012-12-15T14:59:22Z</time>
      </trkpt>
      <trkpt lat="42.882287" lon="0.868414">
        <ele>1521.9</ele>
        <time>2012-12-15T14:59:32Z</time>
      </trkpt>
      <trkpt lat="42.882208" lon="0.868488">
        <ele>1520.9</ele>
        <time>2012-12-15T14:59:42Z</time>
      </trkpt>
      <trkpt lat="42.882137" lon="0.868540">
        <ele>1519.0</ele>
        <time>2012-12-15T14:59:54Z</time>
      </trkpt>
      <trkpt lat="42.882068" lon="0.868593">
        <ele>1517.6</ele>
        <time>2012-12-15T15:00:06Z</time>
      </trkpt>
      <trkpt lat="42.882033" lon="0.868696">
        <ele>1517.1</ele>
        <time>2012-12-15T15:00:20Z</time>
      </trkpt>
      <trkpt lat="42.882003" lon="0.868823">
        <ele>1516.1</ele>
        <time>2012-12-15T15:00:32Z</time>
      </trkpt>
      <trkpt lat="42.881957" lon="0.868933">
        <ele>1513.2</ele>
        <time>2012-12-15T15:00:43Z</time>
      </trkpt>
      <trkpt lat="42.881912" lon="0.869014">
        <ele>1509.9</ele>
        <time>2012-12-15T15:01:07Z</time>
      </trkpt>
      <trkpt lat="42.881893" lon="0.869153">
        <ele>1507.5</ele>
        <time>2012-12-15T15:01:29Z</time>
      </trkpt>
      <trkpt lat="42.881872" lon="0.869292">
        <ele>1507.5</ele>
        <time>2012-12-15T15:01:41Z</time>
      </trkpt>
      <trkpt lat="42.881873" lon="0.869426">
        <ele>1505.6</ele>
        <time>2012-12-15T15:01:50Z</time>
      </trkpt>
      <trkpt lat="42.881911" lon="0.869542">
        <ele>1503.2</ele>
        <time>2012-12-15T15:01:59Z</time>
      </trkpt>
      <trkpt lat="42.881928" lon="0.869685">
        <ele>1500.3</ele>
        <time>2012-12-15T15:02:10Z</time>
      </trkpt>
      <trkpt lat="42.881939" lon="0.869814">
        <ele>1496.4</ele>
        <time>2012-12-15T15:02:22Z</time>
      </trkpt>
      <trkpt lat="42.881947" lon="0.869959">
        <ele>1493.6</ele>
        <time>2012-12-15T15:02:33Z</time>
      </trkpt>
      <trkpt lat="42.881979" lon="0.870075">
        <ele>1491.1</ele>
        <time>2012-12-15T15:02:45Z</time>
      </trkpt>
      <trkpt lat="42.881974" lon="0.870213">
        <ele>1486.8</ele>
        <time>2012-12-15T15:03:01Z</time>
      </trkpt>
      <trkpt lat="42.881960" lon="0.870362">
        <ele>1483.0</ele>
        <time>2012-12-15T15:03:17Z</time>
      </trkpt>
      <trkpt lat="42.881968" lon="0.870517">
        <ele>1481.1</ele>
        <time>2012-12-15T15:03:29Z</time>
      </trkpt>
      <trkpt lat="42.882002" lon="0.870616">
        <ele>1477.7</ele>
        <time>2012-12-15T15:03:40Z</time>
      </trkpt>
      <trkpt lat="42.882037" lon="0.870716">
        <ele>1473.8</ele>
        <time>2012-12-15T15:03:53Z</time>
      </trkpt>
      <trkpt lat="42.882040" lon="0.870837">
        <ele>1471.9</ele>
        <time>2012-12-15T15:04:03Z</time>
      </trkpt>
      <trkpt lat="42.882059" lon="0.870942">
        <ele>1469.0</ele>
        <time>2012-12-15T15:04:14Z</time>
      </trkpt>
      <trkpt lat="42.882072" lon="0.871077">
        <ele>1465.2</ele>
        <time>2012-12-15T15:04:27Z</time>
      </trkpt>
      <trkpt lat="42.882090" lon="0.871199">
        <ele>1461.8</ele>
        <time>2012-12-15T15:04:39Z</time>
      </trkpt>
      <trkpt lat="42.882092" lon="0.871332">
        <ele>1458.5</ele>
        <time>2012-12-15T15:04:52Z</time>
      </trkpt>
      <trkpt lat="42.882085" lon="0.871467">
        <ele>1455.1</ele>
        <time>2012-12-15T15:05:04Z</time>
      </trkpt>
      <trkpt lat="42.882096" lon="0.871603">
        <ele>1451.2</ele>
        <time>2012-12-15T15:05:17Z</time>
      </trkpt>
      <trkpt lat="42.882072" lon="0.871753">
        <ele>1448.8</ele>
        <time>2012-12-15T15:05:29Z</time>
      </trkpt>
      <trkpt lat="42.882036" lon="0.871863">
        <ele>1445.5</ele>
        <time>2012-12-15T15:05:42Z</time>
      </trkpt>
      <trkpt lat="42.882022" lon="0.872007">
        <ele>1443.1</ele>
        <time>2012-12-15T15:05:54Z</time>
      </trkpt>
      <trkpt lat="42.881987" lon="0.872151">
        <ele>1441.2</ele>
        <time>2012-12-15T15:06:07Z</time>
      </trkpt>
      <trkpt lat="42.881938" lon="0.872265">
        <ele>1439.2</ele>
        <time>2012-12-15T15:06:19Z</time>
      </trkpt>
      <trkpt lat="42.881952" lon="0.872380">
        <ele>1436.8</ele>
        <time>2012-12-15T15:06:38Z</time>
      </trkpt>
      <trkpt lat="42.881958" lon="0.872507">
        <ele>1433.0</ele>
        <time>2012-12-15T15:06:50Z</time>
      </trkpt>
      <trkpt lat="42.881980" lon="0.872643">
        <ele>1429.1</ele>
        <time>2012-12-15T15:07:05Z</time>
      </trkpt>
      <trkpt lat="42.882004" lon="0.872780">
        <ele>1424.3</ele>
        <time>2012-12-15T15:07:16Z</time>
      </trkpt>
      <trkpt lat="42.882015" lon="0.872911">
        <ele>1420.0</ele>
        <time>2012-12-15T15:07:30Z</time>
      </trkpt>
      <trkpt lat="42.882107" lon="0.873088">
        <ele>1411.3</ele>
        <time>2012-12-15T15:07:50Z</time>
      </trkpt>
      <trkpt lat="42.882185" lon="0.873228">
        <ele>1404.1</ele>
        <time>2012-12-15T15:08:07Z</time>
      </trkpt>
      <trkpt lat="42.882305" lon="0.873347">
        <ele>1396.9</ele>
        <time>2012-12-15T15:08:30Z</time>
      </trkpt>
      <trkpt lat="42.882341" lon="0.873488">
        <ele>1393.1</ele>
        <time>2012-12-15T15:08:51Z</time>
      </trkpt>
      <trkpt lat="42.882331" lon="0.873737">
        <ele>1387.8</ele>
        <time>2012-12-15T15:09:32Z</time>
      </trkpt>
      <trkpt lat="42.882495" lon="0.873907">
        <ele>1381.1</ele>
        <time>2012-12-15T15:10:30Z</time>
      </trkpt>
      <trkpt lat="42.882553" lon="0.874016">
        <ele>1379.2</ele>
        <time>2012-12-15T15:11:18Z</time>
      </trkpt>
      <trkpt lat="42.882574" lon="0.874123">
        <ele>1376.8</ele>
        <time>2012-12-15T15:11:38Z</time>
      </trkpt>
      <trkpt lat="42.882622" lon="0.874240">
        <ele>1373.4</ele>
        <time>2012-12-15T15:12:26Z</time>
      </trkpt>
      <trkpt lat="42.882666" lon="0.874333">
        <ele>1370.5</ele>
        <time>2012-12-15T15:12:40Z</time>
      </trkpt>
      <trkpt lat="42.882709" lon="0.874463">
        <ele>1367.6</ele>
        <time>2012-12-15T15:13:00Z</time>
      </trkpt>
      <trkpt lat="42.882732" lon="0.874524">
        <ele>1362.8</ele>
        <time>2012-12-15T15:22:20Z</time>
      </trkpt>
      <trkpt lat="42.882805" lon="0.874529">
        <ele>1362.8</ele>
        <time>2012-12-15T15:27:02Z</time>
      </trkpt>
      <trkpt lat="42.882836" lon="0.874603">
        <ele>1362.3</ele>
        <time>2012-12-15T15:28:28Z</time>
        <name>Cabane Barguerasses</name>
      </trkpt>
      <trkpt lat="42.882858" lon="0.874706">
        <ele>1359.0</ele>
        <time>2012-12-15T15:28:48Z</time>
      </trkpt>
      <trkpt lat="42.882931" lon="0.874823">
        <ele>1356.6</ele>
        <time>2012-12-15T15:28:59Z</time>
      </trkpt>
      <trkpt lat="42.882999" lon="0.874919">
        <ele>1352.7</ele>
        <time>2012-12-15T15:29:09Z</time>
      </trkpt>
      <trkpt lat="42.883086" lon="0.874877">
        <ele>1348.9</ele>
        <time>2012-12-15T15:29:18Z</time>
      </trkpt>
      <trkpt lat="42.883160" lon="0.874801">
        <ele>1345.5</ele>
        <time>2012-12-15T15:29:41Z</time>
      </trkpt>
      <trkpt lat="42.883294" lon="0.874827">
        <ele>1345.0</ele>
        <time>2012-12-15T15:29:53Z</time>
      </trkpt>
      <trkpt lat="42.883410" lon="0.874890">
        <ele>1344.5</ele>
        <time>2012-12-15T15:30:06Z</time>
      </trkpt>
      <trkpt lat="42.883522" lon="0.874882">
        <ele>1343.6</ele>
        <time>2012-12-15T15:30:19Z</time>
      </trkpt>
      <trkpt lat="42.883614" lon="0.874980">
        <ele>1343.6</ele>
        <time>2012-12-15T15:30:33Z</time>
      </trkpt>
      <trkpt lat="42.883717" lon="0.875058">
        <ele>1344.5</ele>
        <time>2012-12-15T15:30:54Z</time>
      </trkpt>
      <trkpt lat="42.883785" lon="0.875132">
        <ele>1344.5</ele>
        <time>2012-12-15T15:31:16Z</time>
      </trkpt>
      <trkpt lat="42.883880" lon="0.875237">
        <ele>1341.7</ele>
        <time>2012-12-15T15:31:48Z</time>
      </trkpt>
      <trkpt lat="42.883899" lon="0.875374">
        <ele>1338.3</ele>
        <time>2012-12-15T15:32:08Z</time>
      </trkpt>
      <trkpt lat="42.883808" lon="0.875455">
        <ele>1334.0</ele>
        <time>2012-12-15T15:32:23Z</time>
      </trkpt>
      <trkpt lat="42.883783" lon="0.875628">
        <ele>1328.2</ele>
        <time>2012-12-15T15:32:45Z</time>
      </trkpt>
      <trkpt lat="42.883840" lon="0.875790">
        <ele>1328.2</ele>
        <time>2012-12-15T15:32:59Z</time>
      </trkpt>
      <trkpt lat="42.883832" lon="0.875940">
        <ele>1325.8</ele>
        <time>2012-12-15T15:33:13Z</time>
      </trkpt>
      <trkpt lat="42.883823" lon="0.876091">
        <ele>1322.9</ele>
        <time>2012-12-15T15:33:27Z</time>
      </trkpt>
      <trkpt lat="42.883879" lon="0.876257">
        <ele>1319.1</ele>
        <time>2012-12-15T15:33:41Z</time>
      </trkpt>
      <trkpt lat="42.883844" lon="0.876349">
        <ele>1314.3</ele>
        <time>2012-12-15T15:33:54Z</time>
      </trkpt>
      <trkpt lat="42.883724" lon="0.876329">
        <ele>1311.4</ele>
        <time>2012-12-15T15:34:09Z</time>
      </trkpt>
      <trkpt lat="42.883707" lon="0.876484">
        <ele>1304.2</ele>
        <time>2012-12-15T15:34:26Z</time>
      </trkpt>
      <trkpt lat="42.883783" lon="0.876659">
        <ele>1300.3</ele>
        <time>2012-12-15T15:34:40Z</time>
      </trkpt>
      <trkpt lat="42.883749" lon="0.876762">
        <ele>1294.6</ele>
        <time>2012-12-15T15:34:54Z</time>
      </trkpt>
      <trkpt lat="42.883657" lon="0.876748">
        <ele>1291.7</ele>
        <time>2012-12-15T15:35:06Z</time>
      </trkpt>
      <trkpt lat="42.883572" lon="0.876875">
        <ele>1284.9</ele>
        <time>2012-12-15T15:35:21Z</time>
      </trkpt>
      <trkpt lat="42.883650" lon="0.877030">
        <ele>1280.1</ele>
        <time>2012-12-15T15:35:41Z</time>
      </trkpt>
      <trkpt lat="42.883767" lon="0.877174">
        <ele>1275.8</ele>
        <time>2012-12-15T15:36:02Z</time>
      </trkpt>
      <trkpt lat="42.883749" lon="0.877255">
        <ele>1271.5</ele>
        <time>2012-12-15T15:36:20Z</time>
      </trkpt>
      <trkpt lat="42.883709" lon="0.877378">
        <ele>1266.7</ele>
        <time>2012-12-15T15:36:39Z</time>
      </trkpt>
      <trkpt lat="42.883702" lon="0.877484">
        <ele>1260.9</ele>
        <time>2012-12-15T15:37:12Z</time>
      </trkpt>
      <trkpt lat="42.883626" lon="0.877592">
        <ele>1255.1</ele>
        <time>2012-12-15T15:37:27Z</time>
      </trkpt>
      <trkpt lat="42.883598" lon="0.877724">
        <ele>1247.9</ele>
        <time>2012-12-15T15:37:51Z</time>
      </trkpt>
      <trkpt lat="42.883685" lon="0.877871">
        <ele>1240.2</ele>
        <time>2012-12-15T15:38:09Z</time>
      </trkpt>
      <trkpt lat="42.883815" lon="0.877954">
        <ele>1233.0</ele>
        <time>2012-12-15T15:38:35Z</time>
      </trkpt>
      <trkpt lat="42.883904" lon="0.877942">
        <ele>1231.1</ele>
        <time>2012-12-15T15:38:46Z</time>
      </trkpt>
      <trkpt lat="42.883976" lon="0.878070">
        <ele>1227.3</ele>
        <time>2012-12-15T15:39:45Z</time>
      </trkpt>
      <trkpt lat="42.884120" lon="0.878187">
        <ele>1222.4</ele>
        <time>2012-12-15T15:39:59Z</time>
      </trkpt>
      <trkpt lat="42.884163" lon="0.878325">
        <ele>1219.6</ele>
        <time>2012-12-15T15:40:14Z</time>
      </trkpt>
      <trkpt lat="42.884192" lon="0.878457">
        <ele>1216.2</ele>
        <time>2012-12-15T15:40:36Z</time>
      </trkpt>
      <trkpt lat="42.884232" lon="0.878603">
        <ele>1211.9</ele>
        <time>2012-12-15T15:40:51Z</time>
      </trkpt>
      <trkpt lat="42.884309" lon="0.878711">
        <ele>1208.5</ele>
        <time>2012-12-15T15:41:01Z</time>
      </trkpt>
      <trkpt lat="42.884387" lon="0.878920">
        <ele>1202.8</ele>
        <time>2012-12-15T15:41:18Z</time>
      </trkpt>
      <trkpt lat="42.884544" lon="0.878988">
        <ele>1198.9</ele>
        <time>2012-12-15T15:41:32Z</time>
      </trkpt>
      <trkpt lat="42.884609" lon="0.879132">
        <ele>1197.9</ele>
        <time>2012-12-15T15:42:03Z</time>
      </trkpt>
      <trkpt lat="42.884719" lon="0.879275">
        <ele>1197.0</ele>
        <time>2012-12-15T15:42:20Z</time>
      </trkpt>
      <trkpt lat="42.884827" lon="0.879359">
        <ele>1193.1</ele>
        <time>2012-12-15T15:42:36Z</time>
      </trkpt>
      <trkpt lat="42.884905" lon="0.879475">
        <ele>1189.3</ele>
        <time>2012-12-15T15:42:53Z</time>
      </trkpt>
      <trkpt lat="42.885057" lon="0.879549">
        <ele>1185.0</ele>
        <time>2012-12-15T15:43:39Z</time>
      </trkpt>
      <trkpt lat="42.885166" lon="0.879645">
        <ele>1180.6</ele>
        <time>2012-12-15T15:43:51Z</time>
      </trkpt>
      <trkpt lat="42.885249" lon="0.879775">
        <ele>1175.3</ele>
        <time>2012-12-15T15:44:09Z</time>
      </trkpt>
      <trkpt lat="42.885308" lon="0.879899">
        <ele>1171.5</ele>
        <time>2012-12-15T15:44:31Z</time>
      </trkpt>
      <trkpt lat="42.885377" lon="0.880029">
        <ele>1168.1</ele>
        <time>2012-12-15T15:44:57Z</time>
      </trkpt>
      <trkpt lat="42.885483" lon="0.880098">
        <ele>1165.7</ele>
        <time>2012-12-15T15:45:19Z</time>
      </trkpt>
      <trkpt lat="42.885602" lon="0.880217">
        <ele>1163.3</ele>
        <time>2012-12-15T15:45:57Z</time>
      </trkpt>
      <trkpt lat="42.885682" lon="0.880275">
        <ele>1165.3</ele>
        <time>2012-12-15T15:46:13Z</time>
      </trkpt>
      <trkpt lat="42.885803" lon="0.880326">
        <ele>1165.3</ele>
        <time>2012-12-15T15:46:27Z</time>
      </trkpt>
      <trkpt lat="42.885917" lon="0.880360">
        <ele>1164.8</ele>
        <time>2012-12-15T15:46:41Z</time>
      </trkpt>
      <trkpt lat="42.886042" lon="0.880369">
        <ele>1161.9</ele>
        <time>2012-12-15T15:46:53Z</time>
      </trkpt>
      <trkpt lat="42.886120" lon="0.880416">
        <ele>1160.9</ele>
        <time>2012-12-15T15:47:05Z</time>
      </trkpt>
      <trkpt lat="42.886233" lon="0.880417">
        <ele>1158.5</ele>
        <time>2012-12-15T15:47:21Z</time>
      </trkpt>
      <trkpt lat="42.886406" lon="0.880385">
        <ele>1157.6</ele>
        <time>2012-12-15T15:47:37Z</time>
      </trkpt>
      <trkpt lat="42.886509" lon="0.880302">
        <ele>1155.2</ele>
        <time>2012-12-15T15:47:49Z</time>
      </trkpt>
      <trkpt lat="42.886601" lon="0.880286">
        <ele>1154.2</ele>
        <time>2012-12-15T15:48:00Z</time>
      </trkpt>
      <trkpt lat="42.886746" lon="0.880299">
        <ele>1148.9</ele>
        <time>2012-12-15T15:48:25Z</time>
      </trkpt>
      <trkpt lat="42.886871" lon="0.880250">
        <ele>1146.0</ele>
        <time>2012-12-15T15:48:47Z</time>
      </trkpt>
      <trkpt lat="42.887015" lon="0.880280">
        <ele>1143.6</ele>
        <time>2012-12-15T15:49:14Z</time>
      </trkpt>
      <trkpt lat="42.887079" lon="0.880335">
        <ele>1135.0</ele>
        <time>2012-12-15T15:49:49Z</time>
      </trkpt>
      <trkpt lat="42.887196" lon="0.880316">
        <ele>1131.6</ele>
        <time>2012-12-15T15:50:00Z</time>
      </trkpt>
      <trkpt lat="42.887349" lon="0.880266">
        <ele>1123.9</ele>
        <time>2012-12-15T15:50:18Z</time>
      </trkpt>
      <trkpt lat="42.887506" lon="0.880204">
        <ele>1120.6</ele>
        <time>2012-12-15T15:50:30Z</time>
      </trkpt>
      <trkpt lat="42.887678" lon="0.880187">
        <ele>1116.7</ele>
        <time>2012-12-15T15:50:44Z</time>
      </trkpt>
      <trkpt lat="42.887841" lon="0.880170">
        <ele>1114.3</ele>
        <time>2012-12-15T15:50:53Z</time>
      </trkpt>
      <trkpt lat="42.887977" lon="0.880130">
        <ele>1112.4</ele>
        <time>2012-12-15T15:51:04Z</time>
      </trkpt>
      <trkpt lat="42.888108" lon="0.880079">
        <ele>1110.9</ele>
        <time>2012-12-15T15:51:26Z</time>
      </trkpt>
      <trkpt lat="42.888158" lon="0.880184">
        <ele>1110.9</ele>
        <time>2012-12-15T15:51:49Z</time>
      </trkpt>
      <trkpt lat="42.888287" lon="0.880169">
        <ele>1110.5</ele>
        <time>2012-12-15T15:52:05Z</time>
      </trkpt>
      <trkpt lat="42.888375" lon="0.880215">
        <ele>1110.0</ele>
        <time>2012-12-15T15:52:15Z</time>
      </trkpt>
      <trkpt lat="42.888551" lon="0.880222">
        <ele>1108.5</ele>
        <time>2012-12-15T15:52:30Z</time>
      </trkpt>
      <trkpt lat="42.888743" lon="0.880252">
        <ele>1108.5</ele>
        <time>2012-12-15T15:53:16Z</time>
      </trkpt>
      <trkpt lat="42.888807" lon="0.880401">
        <ele>1105.7</ele>
        <time>2012-12-15T15:53:30Z</time>
      </trkpt>
      <trkpt lat="42.888855" lon="0.880489">
        <ele>1103.7</ele>
        <time>2012-12-15T15:53:38Z</time>
      </trkpt>
      <trkpt lat="42.888873" lon="0.880609">
        <ele>1098.0</ele>
        <time>2012-12-15T15:53:48Z</time>
        <name>Passerelle</name>
      </trkpt>
      <trkpt lat="42.888960" lon="0.880568">
        <ele>1096.0</ele>
        <time>2012-12-15T15:54:12Z</time>
      </trkpt>
      <trkpt lat="42.889001" lon="0.880583">
        <ele>1095.1</ele>
        <time>2012-12-15T15:57:08Z</time>
      </trkpt>
      <trkpt lat="42.889039" lon="0.880690">
        <ele>1094.6</ele>
        <time>2012-12-15T15:57:27Z</time>
      </trkpt>
      <trkpt lat="42.889160" lon="0.880828">
        <ele>1092.7</ele>
        <time>2012-12-15T15:57:42Z</time>
      </trkpt>
      <trkpt lat="42.889206" lon="0.880971">
        <ele>1089.8</ele>
        <time>2012-12-15T15:57:53Z</time>
      </trkpt>
      <trkpt lat="42.889248" lon="0.881124">
        <ele>1087.4</ele>
        <time>2012-12-15T15:58:05Z</time>
      </trkpt>
      <trkpt lat="42.889291" lon="0.881319">
        <ele>1085.5</ele>
        <time>2012-12-15T15:58:20Z</time>
      </trkpt>
      <trkpt lat="42.889311" lon="0.881466">
        <ele>1082.6</ele>
        <time>2012-12-15T15:58:31Z</time>
      </trkpt>
      <trkpt lat="42.889304" lon="0.881629">
        <ele>1079.7</ele>
        <time>2012-12-15T15:58:44Z</time>
      </trkpt>
      <trkpt lat="42.889345" lon="0.881789">
        <ele>1076.8</ele>
        <time>2012-12-15T15:58:58Z</time>
      </trkpt>
      <trkpt lat="42.889373" lon="0.881958">
        <ele>1075.8</ele>
        <time>2012-12-15T15:59:10Z</time>
      </trkpt>
      <trkpt lat="42.889383" lon="0.882121">
        <ele>1075.4</ele>
        <time>2012-12-15T15:59:22Z</time>
      </trkpt>
      <trkpt lat="42.889374" lon="0.882261">
        <ele>1073.0</ele>
        <time>2012-12-15T15:59:34Z</time>
      </trkpt>
      <trkpt lat="42.889416" lon="0.882409">
        <ele>1071.1</ele>
        <time>2012-12-15T15:59:46Z</time>
      </trkpt>
      <trkpt lat="42.889425" lon="0.882550">
        <ele>1070.1</ele>
        <time>2012-12-15T15:59:58Z</time>
      </trkpt>
      <trkpt lat="42.889486" lon="0.882686">
        <ele>1067.7</ele>
        <time>2012-12-15T16:00:10Z</time>
      </trkpt>
      <trkpt lat="42.889555" lon="0.882809">
        <ele>1066.7</ele>
        <time>2012-12-15T16:00:22Z</time>
      </trkpt>
      <trkpt lat="42.889614" lon="0.882947">
        <ele>1065.8</ele>
        <time>2012-12-15T16:00:33Z</time>
      </trkpt>
      <trkpt lat="42.889743" lon="0.883080">
        <ele>1063.4</ele>
        <time>2012-12-15T16:00:47Z</time>
      </trkpt>
      <trkpt lat="42.889853" lon="0.883180">
        <ele>1061.9</ele>
        <time>2012-12-15T16:00:59Z</time>
      </trkpt>
      <trkpt lat="42.889960" lon="0.883229">
        <ele>1060.5</ele>
        <time>2012-12-15T16:01:08Z</time>
      </trkpt>
      <trkpt lat="42.890056" lon="0.883325">
        <ele>1059.5</ele>
        <time>2012-12-15T16:01:18Z</time>
      </trkpt>
      <trkpt lat="42.890150" lon="0.883411">
        <ele>1058.1</ele>
        <time>2012-12-15T16:01:29Z</time>
      </trkpt>
      <trkpt lat="42.890217" lon="0.883529">
        <ele>1057.1</ele>
        <time>2012-12-15T16:01:45Z</time>
      </trkpt>
      <trkpt lat="42.890279" lon="0.883646">
        <ele>1055.7</ele>
        <time>2012-12-15T16:01:58Z</time>
      </trkpt>
      <trkpt lat="42.890364" lon="0.883797">
        <ele>1053.7</ele>
        <time>2012-12-15T16:02:14Z</time>
      </trkpt>
      <trkpt lat="42.890431" lon="0.883913">
        <ele>1053.7</ele>
        <time>2012-12-15T16:02:27Z</time>
      </trkpt>
      <trkpt lat="42.890546" lon="0.884001">
        <ele>1052.3</ele>
        <time>2012-12-15T16:02:42Z</time>
      </trkpt>
      <trkpt lat="42.890608" lon="0.884135">
        <ele>1049.9</ele>
        <time>2012-12-15T16:03:00Z</time>
      </trkpt>
      <trkpt lat="42.890752" lon="0.884238">
        <ele>1048.9</ele>
        <time>2012-12-15T16:03:14Z</time>
      </trkpt>
      <trkpt lat="42.890807" lon="0.884392">
        <ele>1047.5</ele>
        <time>2012-12-15T16:03:28Z</time>
      </trkpt>
      <trkpt lat="42.890834" lon="0.884541">
        <ele>1046.5</ele>
        <time>2012-12-15T16:03:40Z</time>
      </trkpt>
      <trkpt lat="42.890896" lon="0.884651">
        <ele>1045.1</ele>
        <time>2012-12-15T16:03:51Z</time>
      </trkpt>
      <trkpt lat="42.891001" lon="0.884727">
        <ele>1044.6</ele>
        <time>2012-12-15T16:04:15Z</time>
      </trkpt>
      <trkpt lat="42.891049" lon="0.884873">
        <ele>1045.1</ele>
        <time>2012-12-15T16:04:28Z</time>
      </trkpt>
      <trkpt lat="42.891078" lon="0.884983">
        <ele>1045.1</ele>
        <time>2012-12-15T16:04:47Z</time>
      </trkpt>
      <trkpt lat="42.891093" lon="0.885113">
        <ele>1046.1</ele>
        <time>2012-12-15T16:04:57Z</time>
      </trkpt>
      <trkpt lat="42.891122" lon="0.885231">
        <ele>1047.0</ele>
        <time>2012-12-15T16:05:08Z</time>
      </trkpt>
      <trkpt lat="42.891172" lon="0.885345">
        <ele>1047.0</ele>
        <time>2012-12-15T16:05:18Z</time>
      </trkpt>
      <trkpt lat="42.891200" lon="0.885461">
        <ele>1048.4</ele>
        <time>2012-12-15T16:05:28Z</time>
      </trkpt>
      <trkpt lat="42.891227" lon="0.885576">
        <ele>1049.4</ele>
        <time>2012-12-15T16:05:36Z</time>
      </trkpt>
      <trkpt lat="42.891261" lon="0.885690">
        <ele>1050.4</ele>
        <time>2012-12-15T16:05:46Z</time>
      </trkpt>
      <trkpt lat="42.891301" lon="0.885831">
        <ele>1051.3</ele>
        <time>2012-12-15T16:05:57Z</time>
      </trkpt>
      <trkpt lat="42.891415" lon="0.885926">
        <ele>1052.3</ele>
        <time>2012-12-15T16:06:10Z</time>
      </trkpt>
      <trkpt lat="42.891484" lon="0.886035">
        <ele>1051.3</ele>
        <time>2012-12-15T16:06:20Z</time>
      </trkpt>
      <trkpt lat="42.891563" lon="0.886147">
        <ele>1051.3</ele>
        <time>2012-12-15T16:06:30Z</time>
      </trkpt>
      <trkpt lat="42.891600" lon="0.886286">
        <ele>1050.9</ele>
        <time>2012-12-15T16:06:39Z</time>
      </trkpt>
      <trkpt lat="42.891603" lon="0.886447">
        <ele>1050.4</ele>
        <time>2012-12-15T16:06:49Z</time>
      </trkpt>
      <trkpt lat="42.891622" lon="0.886616">
        <ele>1048.4</ele>
        <time>2012-12-15T16:06:59Z</time>
      </trkpt>
      <trkpt lat="42.891648" lon="0.886769">
        <ele>1047.5</ele>
        <time>2012-12-15T16:07:09Z</time>
      </trkpt>
      <trkpt lat="42.891727" lon="0.886883">
        <ele>1046.1</ele>
        <time>2012-12-15T16:07:19Z</time>
      </trkpt>
      <trkpt lat="42.891813" lon="0.887014">
        <ele>1044.6</ele>
        <time>2012-12-15T16:07:31Z</time>
      </trkpt>
      <trkpt lat="42.891892" lon="0.887133">
        <ele>1043.7</ele>
        <time>2012-12-15T16:07:40Z</time>
      </trkpt>
      <trkpt lat="42.891968" lon="0.887237">
        <ele>1042.2</ele>
        <time>2012-12-15T16:07:50Z</time>
      </trkpt>
      <trkpt lat="42.892050" lon="0.887216">
        <ele>1065.3</ele>
        <time>2012-12-15T16:08:00Z</time>
      </trkpt>
      <trkpt lat="42.892066" lon="0.887090">
        <ele>1062.2</ele>
        <time>2012-12-15T16:08:11Z</time>
      </trkpt>
      <trkpt lat="42.892083" lon="0.886962">
        <ele>1059.0</ele>
        <time>2012-12-15T16:08:22Z</time>
      </trkpt>
      <trkpt lat="42.892101" lon="0.886864">
        <ele>1056.8</ele>
        <time>2012-12-15T16:08:34Z</time>
      </trkpt>
      <trkpt lat="42.892122" lon="0.886774">
        <ele>1054.5</ele>
        <time>2012-12-15T16:09:34Z</time>
      </trkpt>
    </trkseg>
  </trk>
</gpx>

